AFR096 LFPG-KMCO
Flight info
| Callsign | AFR096 |
|---|---|
| Flight time | 9h 24m |
| Altitude | 36000 |
| Route | ELCOB UT300 SENLO DCT JSY DCT LIZAD DCT LULOX/M085F360 DCT ELSOX DCT DINIM/M085F380 NATJ SUPRY/M085F400 DCT CARAC M201 DRYED DCT KINER DCT WILYY M203 SNAGY/N0487F400 DCT ADOOR M202 HOBEE AR6 HIBAC ALYNA4 |
| Aircraft | A359/H-SDE2E3GHIJ3J4J5LM1ORWXY/LB1D1 |
Departure
| Time | 2026-05-08 12:56 |
|---|---|
| Airport | Charles de Gaulle International Airport (LFPG) |
Arrival
| Time | 2026-05-08 22:20 |
|---|---|
| Airport | Orlando International Airport (KMCO) |
| Time | Latitude | Longitude | Altitude | Speed | Heading |
|---|---|---|---|---|---|
| 2026-05-08 11:40 | 49.00561 | 2.58584 | 360 ft | 0 kts | 266° |
| 2026-05-08 12:36 | 49.00561 | 2.58599 | 360 ft | 3 kts | 266° |
| 2026-05-08 12:36 | 49.00564 | 2.58640 | 381 ft | 4 kts | 265° |
| 2026-05-08 12:36 | 49.00566 | 2.58678 | 366 ft | 3 kts | 264° |
| 2026-05-08 12:36 | 49.00569 | 2.58706 | 365 ft | 4 kts | 224° |
| 2026-05-08 12:37 | 49.00580 | 2.58716 | 368 ft | 4 kts | 175° |
| 2026-05-08 12:37 | 49.00607 | 2.58710 | 360 ft | 4 kts | 172° |
| 2026-05-08 12:37 | 49.00617 | 2.58708 | 365 ft | 6 kts | 175° |
| 2026-05-08 12:41 | 49.00615 | 2.58709 | 365 ft | 1 kts | 175° |
| 2026-05-08 12:42 | 49.00608 | 2.58709 | 367 ft | 1 kts | 175° |
| 2026-05-08 12:42 | 49.00596 | 2.58711 | 360 ft | 2 kts | 175° |
| 2026-05-08 12:42 | 49.00575 | 2.58713 | 367 ft | 4 kts | 175° |
| 2026-05-08 12:42 | 49.00544 | 2.58717 | 362 ft | 5 kts | 175° |
| 2026-05-08 12:43 | 49.00503 | 2.58722 | 362 ft | 6 kts | 175° |
| 2026-05-08 12:43 | 49.00454 | 2.58729 | 366 ft | 8 kts | 175° |
| 2026-05-08 12:43 | 49.00396 | 2.58735 | 362 ft | 9 kts | 175° |
| 2026-05-08 12:43 | 49.00331 | 2.58743 | 364 ft | 10 kts | 176° |
| 2026-05-08 12:44 | 49.00259 | 2.58751 | 360 ft | 11 kts | 176° |
| 2026-05-08 12:44 | 49.00182 | 2.58760 | 363 ft | 12 kts | 175° |
| 2026-05-08 12:44 | 49.00105 | 2.58768 | 360 ft | 11 kts | 180° |
| 2026-05-08 12:44 | 49.00043 | 2.58725 | 360 ft | 10 kts | 236° |
| 2026-05-08 12:45 | 49.00030 | 2.58621 | 362 ft | 10 kts | 264° |
| 2026-05-08 12:45 | 49.00023 | 2.58504 | 360 ft | 12 kts | 265° |
| 2026-05-08 12:45 | 49.00016 | 2.58376 | 366 ft | 13 kts | 265° |
| 2026-05-08 12:45 | 49.00009 | 2.58239 | 364 ft | 14 kts | 265° |
| 2026-05-08 12:46 | 49.00001 | 2.58091 | 366 ft | 15 kts | 265° |
| 2026-05-08 12:46 | 48.99993 | 2.57933 | 365 ft | 16 kts | 265° |
| 2026-05-08 12:46 | 48.99984 | 2.57771 | 365 ft | 15 kts | 265° |
| 2026-05-08 12:46 | 48.99975 | 2.57606 | 366 ft | 15 kts | 265° |
| 2026-05-08 12:47 | 48.99966 | 2.57440 | 360 ft | 16 kts | 265° |
| 2026-05-08 12:47 | 48.99957 | 2.57270 | 365 ft | 16 kts | 265° |
| 2026-05-08 12:47 | 48.99948 | 2.57099 | 365 ft | 17 kts | 265° |
| 2026-05-08 12:47 | 48.99939 | 2.56921 | 360 ft | 17 kts | 265° |
| 2026-05-08 12:48 | 48.99930 | 2.56750 | 366 ft | 15 kts | 265° |
| 2026-05-08 12:48 | 48.99921 | 2.56584 | 363 ft | 16 kts | 265° |
| 2026-05-08 12:48 | 48.99911 | 2.56413 | 365 ft | 16 kts | 265° |
| 2026-05-08 12:48 | 48.99902 | 2.56245 | 366 ft | 15 kts | 265° |
| 2026-05-08 12:49 | 48.99894 | 2.56092 | 360 ft | 14 kts | 265° |
| 2026-05-08 12:49 | 48.99891 | 2.55949 | 360 ft | 13 kts | 277° |
| 2026-05-08 12:49 | 48.99911 | 2.55823 | 364 ft | 12 kts | 288° |
| 2026-05-08 12:49 | 48.99940 | 2.55712 | 364 ft | 11 kts | 291° |
| 2026-05-08 12:50 | 48.99927 | 2.55604 | 367 ft | 11 kts | 243° |
| 2026-05-08 12:50 | 48.99898 | 2.55493 | 363 ft | 11 kts | 258° |
| 2026-05-08 12:50 | 48.99891 | 2.55376 | 360 ft | 11 kts | 265° |
| 2026-05-08 12:50 | 48.99888 | 2.55313 | 363 ft | 8 kts | 265° |
| 2026-05-08 12:51 | 48.99846 | 2.55240 | 368 ft | 7 kts | 191° |
| 2026-05-08 12:51 | 48.99760 | 2.55272 | 365 ft | 8 kts | 159° |
| 2026-05-08 12:51 | 48.99721 | 2.55330 | 364 ft | 8 kts | 124° |
| 2026-05-08 12:52 | 48.99695 | 2.55390 | 366 ft | 0 kts | 123° |
| 2026-05-08 12:52 | 48.99694 | 2.55392 | 359 ft | 1 kts | 123° |
| 2026-05-08 12:53 | 48.99688 | 2.55407 | 367 ft | 3 kts | 122° |
| 2026-05-08 12:53 | 48.99672 | 2.55441 | 366 ft | 5 kts | 129° |
| 2026-05-08 12:53 | 48.99638 | 2.55490 | 364 ft | 8 kts | 140° |
| 2026-05-08 12:53 | 48.99594 | 2.55546 | 365 ft | 7 kts | 126° |
| 2026-05-08 12:54 | 48.99589 | 2.55610 | 363 ft | 4 kts | 86° |
| 2026-05-08 12:54 | 48.99590 | 2.55622 | 363 ft | 0 kts | 85° |
| 2026-05-08 12:55 | 48.99592 | 2.55664 | 361 ft | 16 kts | 85° |
| 2026-05-08 12:55 | 48.99617 | 2.56151 | 365 ft | 77 kts | 85° |
| 2026-05-08 12:55 | 48.99677 | 2.57265 | 358 ft | 134 kts | 85° |
| 2026-05-08 12:56 | 48.99773 | 2.58939 | 379 ft | 180 kts | 84° |
| 2026-05-08 12:56 | 48.99869 | 2.60885 | 989 ft | 182 kts | 85° |
| 2026-05-08 12:56 | 48.99986 | 2.62746 | 1902 ft | 175 kts | 84° |
| 2026-05-08 12:56 | 49.00100 | 2.64676 | 2372 ft | 195 kts | 85° |
| 2026-05-08 12:57 | 49.00207 | 2.66827 | 2769 ft | 211 kts | 85° |
| 2026-05-08 12:57 | 49.00319 | 2.69140 | 3056 ft | 228 kts | 85° |
| 2026-05-08 12:57 | 49.00439 | 2.71654 | 3353 ft | 245 kts | 85° |
| 2026-05-08 12:57 | 49.00577 | 2.74285 | 3931 ft | 252 kts | 85° |
| 2026-05-08 12:58 | 49.00696 | 2.76973 | 4545 ft | 256 kts | 89° |
| 2026-05-08 12:58 | 49.00566 | 2.79666 | 5164 ft | 260 kts | 98° |
| 2026-05-08 12:58 | 49.00286 | 2.82410 | 5758 ft | 265 kts | 99° |
| 2026-05-08 12:58 | 48.99982 | 2.85227 | 6402 ft | 268 kts | 99° |
| 2026-05-08 12:59 | 48.99680 | 2.88031 | 6987 ft | 271 kts | 99° |
| 2026-05-08 12:59 | 48.99377 | 2.90873 | 7540 ft | 276 kts | 99° |
| 2026-05-08 12:59 | 48.99066 | 2.93777 | 8110 ft | 279 kts | 100° |
| 2026-05-08 12:59 | 48.98661 | 2.96688 | 8675 ft | 283 kts | 110° |
| 2026-05-08 13:00 | 48.97664 | 2.99219 | 9247 ft | 283 kts | 136° |
| 2026-05-08 13:00 | 48.96009 | 3.00813 | 9858 ft | 282 kts | 163° |
| 2026-05-08 13:00 | 48.94062 | 3.01119 | 10345 ft | 286 kts | 188° |
| 2026-05-08 13:00 | 48.92181 | 3.00043 | 10605 ft | 297 kts | 216° |
| 2026-05-08 13:01 | 48.90798 | 2.97656 | 10867 ft | 310 kts | 243° |
| 2026-05-08 13:01 | 48.90150 | 2.94860 | 11144 ft | 321 kts | 254° |
| 2026-05-08 13:01 | 48.89781 | 2.92704 | 11345 ft | 328 kts | 255° |
| 2026-05-08 13:01 | 48.89202 | 2.89285 | 11656 ft | 339 kts | 255° |
| 2026-05-08 13:02 | 48.88584 | 2.85751 | 11947 ft | 350 kts | 254° |
| 2026-05-08 13:02 | 48.87935 | 2.82119 | 12249 ft | 360 kts | 254° |
| 2026-05-08 13:02 | 48.87277 | 2.78465 | 12620 ft | 367 kts | 254° |
| 2026-05-08 13:02 | 48.86596 | 2.74709 | 13072 ft | 371 kts | 253° |
| 2026-05-08 13:03 | 48.85906 | 2.70913 | 13547 ft | 374 kts | 253° |
| 2026-05-08 13:03 | 48.85208 | 2.67093 | 14003 ft | 376 kts | 253° |
| 2026-05-08 13:03 | 48.84507 | 2.63265 | 14427 ft | 379 kts | 253° |
| 2026-05-08 13:03 | 48.83798 | 2.59408 | 14868 ft | 381 kts | 253° |
| 2026-05-08 13:04 | 48.83076 | 2.55493 | 15302 ft | 383 kts | 253° |
| 2026-05-08 13:04 | 48.82356 | 2.51590 | 15735 ft | 385 kts | 253° |
| 2026-05-08 13:04 | 48.81642 | 2.47729 | 16179 ft | 387 kts | 253° |
| 2026-05-08 13:04 | 48.80901 | 2.43734 | 16631 ft | 389 kts | 253° |
| 2026-05-08 13:05 | 48.80422 | 2.39674 | 17026 ft | 394 kts | 268° |
| 2026-05-08 13:05 | 48.80786 | 2.35592 | 17448 ft | 398 kts | 283° |
| 2026-05-08 13:05 | 48.81604 | 2.31566 | 17862 ft | 401 kts | 286° |
| 2026-05-08 13:05 | 48.82457 | 2.27537 | 18296 ft | 403 kts | 286° |
| 2026-05-08 13:06 | 48.83301 | 2.23472 | 18651 ft | 405 kts | 285° |
| 2026-05-08 13:06 | 48.84138 | 2.19371 | 19029 ft | 407 kts | 285° |
| 2026-05-08 13:06 | 48.84968 | 2.15265 | 19417 ft | 408 kts | 285° |
| 2026-05-08 13:06 | 48.85797 | 2.11139 | 19793 ft | 409 kts | 285° |
| 2026-05-08 13:07 | 48.86631 | 2.06964 | 20172 ft | 411 kts | 285° |
| 2026-05-08 13:07 | 48.87451 | 2.02854 | 20523 ft | 412 kts | 285° |
| 2026-05-08 13:07 | 48.88279 | 1.98687 | 20896 ft | 413 kts | 285° |
| 2026-05-08 13:07 | 48.89107 | 1.94513 | 21280 ft | 414 kts | 285° |
| 2026-05-08 13:08 | 48.89942 | 1.90292 | 21655 ft | 416 kts | 285° |
| 2026-05-08 13:08 | 48.90774 | 1.86076 | 22036 ft | 417 kts | 286° |
| 2026-05-08 13:08 | 48.91604 | 1.81856 | 22433 ft | 418 kts | 286° |
| 2026-05-08 13:08 | 48.92437 | 1.77615 | 22823 ft | 419 kts | 286° |
| 2026-05-08 13:09 | 48.93271 | 1.73356 | 23185 ft | 420 kts | 286° |
| 2026-05-08 13:09 | 48.94106 | 1.69087 | 23587 ft | 421 kts | 287° |
| 2026-05-08 13:09 | 48.94938 | 1.64822 | 23925 ft | 421 kts | 287° |
| 2026-05-08 13:09 | 48.95772 | 1.60540 | 24230 ft | 422 kts | 287° |
| 2026-05-08 13:10 | 48.96603 | 1.56262 | 24542 ft | 423 kts | 287° |
| 2026-05-08 13:10 | 48.97439 | 1.51948 | 24852 ft | 424 kts | 287° |
| 2026-05-08 13:10 | 48.98261 | 1.47700 | 25163 ft | 425 kts | 288° |
| 2026-05-08 13:10 | 48.99107 | 1.43315 | 25464 ft | 426 kts | 288° |
| 2026-05-08 13:11 | 48.99934 | 1.39022 | 25728 ft | 427 kts | 288° |
| 2026-05-08 13:11 | 49.00768 | 1.34682 | 26034 ft | 429 kts | 288° |
| 2026-05-08 13:11 | 49.01604 | 1.30320 | 26324 ft | 430 kts | 288° |
| 2026-05-08 13:11 | 49.02440 | 1.25927 | 26613 ft | 432 kts | 287° |
| 2026-05-08 13:12 | 49.03090 | 1.21455 | 26885 ft | 435 kts | 280° |
| 2026-05-08 13:12 | 49.03396 | 1.16835 | 27172 ft | 438 kts | 277° |
| 2026-05-08 13:12 | 49.03583 | 1.12180 | 27454 ft | 440 kts | 276° |
| 2026-05-08 13:12 | 49.03718 | 1.07515 | 27732 ft | 442 kts | 275° |
| 2026-05-08 13:13 | 49.03832 | 1.02846 | 28000 ft | 444 kts | 275° |
| 2026-05-08 13:13 | 49.03947 | 0.98125 | 28264 ft | 446 kts | 275° |
| 2026-05-08 13:13 | 49.04068 | 0.93385 | 28532 ft | 447 kts | 275° |
| 2026-05-08 13:13 | 49.04196 | 0.88634 | 28779 ft | 450 kts | 275° |
| 2026-05-08 13:14 | 49.04328 | 0.83904 | 29035 ft | 451 kts | 275° |
| 2026-05-08 13:14 | 49.04465 | 0.79059 | 29278 ft | 453 kts | 275° |
| 2026-05-08 13:14 | 49.04598 | 0.74328 | 29521 ft | 455 kts | 275° |
| 2026-05-08 13:14 | 49.04732 | 0.69483 | 29751 ft | 457 kts | 275° |
| 2026-05-08 13:15 | 49.04864 | 0.64640 | 30010 ft | 459 kts | 275° |
| 2026-05-08 13:15 | 49.04995 | 0.59770 | 30259 ft | 460 kts | 275° |
| 2026-05-08 13:15 | 49.05123 | 0.54884 | 30610 ft | 459 kts | 274° |
| 2026-05-08 13:15 | 49.05247 | 0.50049 | 30971 ft | 457 kts | 274° |
| 2026-05-08 13:16 | 49.05369 | 0.45201 | 31321 ft | 456 kts | 274° |
| 2026-05-08 13:16 | 49.05490 | 0.40367 | 31669 ft | 454 kts | 274° |
| 2026-05-08 13:16 | 49.05608 | 0.35551 | 32023 ft | 453 kts | 274° |
| 2026-05-08 13:16 | 49.05723 | 0.30759 | 32378 ft | 451 kts | 274° |
| 2026-05-08 13:17 | 49.05836 | 0.25999 | 32731 ft | 450 kts | 274° |
| 2026-05-08 13:17 | 49.05947 | 0.21230 | 33074 ft | 449 kts | 274° |
| 2026-05-08 13:17 | 49.06056 | 0.16481 | 33410 ft | 447 kts | 274° |
| 2026-05-08 13:17 | 49.06162 | 0.11752 | 33760 ft | 446 kts | 274° |
| 2026-05-08 13:18 | 49.06266 | 0.07019 | 34094 ft | 445 kts | 274° |
| 2026-05-08 13:18 | 49.06367 | 0.02367 | 34348 ft | 444 kts | 274° |
| 2026-05-08 13:18 | 49.06468 | -0.02338 | 34584 ft | 444 kts | 273° |
| 2026-05-08 13:18 | 49.06566 | -0.07044 | 34796 ft | 445 kts | 273° |
| 2026-05-08 13:19 | 49.06662 | -0.11752 | 35019 ft | 445 kts | 273° |
| 2026-05-08 13:19 | 49.06757 | -0.16479 | 35248 ft | 445 kts | 273° |
| 2026-05-08 13:19 | 49.06850 | -0.21200 | 35463 ft | 445 kts | 272° |
| 2026-05-08 13:19 | 49.06940 | -0.25878 | 35693 ft | 444 kts | 272° |
| 2026-05-08 13:20 | 49.07029 | -0.30594 | 35933 ft | 444 kts | 272° |
| 2026-05-08 13:20 | 49.07117 | -0.35317 | 36025 ft | 448 kts | 272° |
| 2026-05-08 13:20 | 49.07289 | -0.44904 | 36021 ft | 452 kts | 272° |
| 2026-05-08 13:21 | 49.07452 | -0.54453 | 36017 ft | 451 kts | 272° |
| 2026-05-08 13:21 | 49.07609 | -0.64036 | 36026 ft | 451 kts | 272° |
| 2026-05-08 13:22 | 49.07757 | -0.73610 | 36022 ft | 451 kts | 271° |
| 2026-05-08 13:22 | 49.07896 | -0.83118 | 36030 ft | 451 kts | 271° |
| 2026-05-08 13:23 | 49.08028 | -0.92689 | 36020 ft | 451 kts | 271° |
| 2026-05-08 13:23 | 49.08152 | -1.02231 | 36032 ft | 451 kts | 271° |
| 2026-05-08 13:24 | 49.08268 | -1.11778 | 36027 ft | 451 kts | 271° |
| 2026-05-08 13:24 | 49.08954 | -1.21266 | 36026 ft | 452 kts | 281° |
| 2026-05-08 13:25 | 49.10373 | -1.30636 | 36021 ft | 453 kts | 283° |
| 2026-05-08 13:25 | 49.11896 | -1.39975 | 36025 ft | 453 kts | 283° |
| 2026-05-08 13:26 | 49.13414 | -1.49300 | 36026 ft | 454 kts | 283° |
| 2026-05-08 13:26 | 49.14919 | -1.58686 | 36022 ft | 455 kts | 282° |
| 2026-05-08 13:27 | 49.16410 | -1.68091 | 36017 ft | 455 kts | 282° |
| 2026-05-08 13:27 | 49.17896 | -1.77523 | 36019 ft | 455 kts | 282° |
| 2026-05-08 13:28 | 49.19361 | -1.86873 | 36018 ft | 456 kts | 282° |
| 2026-05-08 13:28 | 49.20835 | -1.96330 | 36019 ft | 456 kts | 282° |
| 2026-05-08 13:29 | 49.22306 | -2.05763 | 36023 ft | 457 kts | 282° |
| 2026-05-08 13:29 | 49.23908 | -2.15243 | 36020 ft | 457 kts | 283° |
| 2026-05-08 13:30 | 49.25544 | -2.24650 | 36023 ft | 458 kts | 283° |
| 2026-05-08 13:30 | 49.27158 | -2.34031 | 36024 ft | 458 kts | 283° |
| 2026-05-08 13:31 | 49.28759 | -2.43461 | 36024 ft | 459 kts | 283° |
| 2026-05-08 13:31 | 49.30358 | -2.52956 | 36011 ft | 459 kts | 282° |
| 2026-05-08 13:32 | 49.31947 | -2.62444 | 36024 ft | 459 kts | 282° |
| 2026-05-08 13:32 | 49.33525 | -2.71915 | 36012 ft | 460 kts | 282° |
| 2026-05-08 13:33 | 49.35102 | -2.81425 | 36019 ft | 460 kts | 282° |
| 2026-05-08 13:33 | 49.36672 | -2.90954 | 36021 ft | 460 kts | 282° |
| 2026-05-08 13:34 | 49.38231 | -3.00468 | 36018 ft | 460 kts | 282° |
| 2026-05-08 13:34 | 49.39779 | -3.09964 | 36022 ft | 461 kts | 282° |
| 2026-05-08 13:35 | 49.41328 | -3.19525 | 36021 ft | 461 kts | 282° |
| 2026-05-08 13:35 | 49.42868 | -3.29086 | 36022 ft | 461 kts | 282° |
| 2026-05-08 13:36 | 49.44146 | -3.37057 | 36016 ft | 462 kts | 281° |
| 2026-05-08 13:36 | 49.45673 | -3.46640 | 36021 ft | 462 kts | 281° |
| 2026-05-08 13:37 | 49.47205 | -3.56302 | 36016 ft | 462 kts | 281° |
| 2026-05-08 13:37 | 49.48710 | -3.65855 | 36018 ft | 463 kts | 281° |
| 2026-05-08 13:38 | 49.50218 | -3.75481 | 36026 ft | 463 kts | 281° |
| 2026-05-08 13:38 | 49.51719 | -3.85121 | 36019 ft | 463 kts | 281° |
| 2026-05-08 13:39 | 49.53217 | -3.94799 | 36018 ft | 464 kts | 281° |
| 2026-05-08 13:39 | 49.54693 | -4.04395 | 36018 ft | 464 kts | 281° |
| 2026-05-08 13:40 | 49.56173 | -4.14073 | 36023 ft | 464 kts | 281° |
| 2026-05-08 13:40 | 49.57645 | -4.23756 | 36020 ft | 464 kts | 280° |
| 2026-05-08 13:41 | 49.59211 | -4.33419 | 36023 ft | 466 kts | 285° |
| 2026-05-08 13:41 | 49.61300 | -4.42899 | 36020 ft | 467 kts | 286° |
| 2026-05-08 13:42 | 49.63471 | -4.52357 | 36022 ft | 467 kts | 286° |
| 2026-05-08 13:42 | 49.65645 | -4.61816 | 36022 ft | 468 kts | 286° |
| 2026-05-08 13:43 | 49.67797 | -4.71252 | 36024 ft | 468 kts | 286° |
| 2026-05-08 13:43 | 49.69941 | -4.80721 | 36024 ft | 468 kts | 286° |
| 2026-05-08 13:44 | 49.72083 | -4.90229 | 36026 ft | 468 kts | 286° |
| 2026-05-08 13:44 | 49.74216 | -4.99745 | 36024 ft | 468 kts | 285° |
| 2026-05-08 13:45 | 49.76342 | -5.09268 | 36022 ft | 468 kts | 285° |
| 2026-05-08 13:45 | 49.78461 | -5.18800 | 36023 ft | 469 kts | 285° |
| 2026-05-08 13:46 | 49.80561 | -5.28294 | 36022 ft | 469 kts | 285° |
| 2026-05-08 13:46 | 49.82667 | -5.37855 | 36024 ft | 469 kts | 285° |
| 2026-05-08 13:47 | 49.84767 | -5.47435 | 36025 ft | 469 kts | 285° |
| 2026-05-08 13:47 | 49.86858 | -5.57020 | 36022 ft | 469 kts | 285° |
| 2026-05-08 13:48 | 49.88941 | -5.66608 | 36022 ft | 469 kts | 285° |
| 2026-05-08 13:48 | 49.91017 | -5.76215 | 36015 ft | 469 kts | 285° |
| 2026-05-08 13:49 | 49.93086 | -5.85826 | 36024 ft | 469 kts | 284° |
| 2026-05-08 13:49 | 49.95133 | -5.95386 | 36026 ft | 469 kts | 284° |
| 2026-05-08 13:50 | 49.97186 | -6.05017 | 36028 ft | 469 kts | 284° |
| 2026-05-08 13:50 | 49.99234 | -6.14671 | 36023 ft | 469 kts | 284° |
| 2026-05-08 13:51 | 50.01257 | -6.24256 | 36015 ft | 469 kts | 284° |
| 2026-05-08 13:51 | 50.03288 | -6.33919 | 36020 ft | 469 kts | 284° |
| 2026-05-08 13:52 | 50.05311 | -6.43594 | 36018 ft | 469 kts | 284° |
| 2026-05-08 13:52 | 50.07326 | -6.53274 | 36027 ft | 469 kts | 284° |
| 2026-05-08 13:53 | 50.09315 | -6.62879 | 36028 ft | 469 kts | 284° |
| 2026-05-08 13:53 | 50.11313 | -6.72571 | 36033 ft | 469 kts | 283° |
| 2026-05-08 13:54 | 50.13300 | -6.82261 | 36033 ft | 469 kts | 283° |
| 2026-05-08 13:54 | 50.15282 | -6.91971 | 36036 ft | 469 kts | 283° |
| 2026-05-08 13:55 | 50.17253 | -7.01678 | 36038 ft | 469 kts | 283° |
| 2026-05-08 13:56 | 50.20195 | -7.16251 | 36034 ft | 469 kts | 283° |
| 2026-05-08 13:56 | 50.22145 | -7.25974 | 36037 ft | 469 kts | 283° |
| 2026-05-08 13:57 | 50.24077 | -7.35651 | 36034 ft | 469 kts | 283° |
| 2026-05-08 13:57 | 50.26014 | -7.45409 | 36037 ft | 469 kts | 283° |
| 2026-05-08 13:58 | 50.27945 | -7.55176 | 36038 ft | 469 kts | 283° |
| 2026-05-08 13:58 | 50.29852 | -7.64878 | 36036 ft | 470 kts | 282° |
| 2026-05-08 13:59 | 50.31766 | -7.74660 | 36038 ft | 469 kts | 282° |
| 2026-05-08 13:59 | 50.33672 | -7.84455 | 36039 ft | 470 kts | 282° |
| 2026-05-08 14:00 | 50.35557 | -7.94189 | 36037 ft | 470 kts | 282° |
| 2026-05-08 14:00 | 50.37203 | -8.04080 | 36043 ft | 467 kts | 278° |
| 2026-05-08 14:01 | 50.38554 | -8.14039 | 36040 ft | 467 kts | 277° |
| 2026-05-08 14:01 | 50.39854 | -8.24014 | 36043 ft | 467 kts | 277° |
| 2026-05-08 14:02 | 50.41145 | -8.34001 | 36040 ft | 467 kts | 277° |
| 2026-05-08 14:02 | 50.42433 | -8.43991 | 36044 ft | 467 kts | 277° |
| 2026-05-08 14:03 | 50.43709 | -8.53931 | 36040 ft | 468 kts | 277° |
| 2026-05-08 14:03 | 50.44994 | -8.64004 | 36043 ft | 468 kts | 276° |
| 2026-05-08 14:04 | 50.46253 | -8.73950 | 36043 ft | 468 kts | 276° |
| 2026-05-08 14:04 | 50.47511 | -8.83969 | 36043 ft | 468 kts | 276° |
| 2026-05-08 14:05 | 50.48763 | -8.94013 | 36044 ft | 468 kts | 276° |
| 2026-05-08 14:05 | 50.50010 | -9.04088 | 36043 ft | 469 kts | 276° |
| 2026-05-08 14:06 | 50.51240 | -9.14106 | 36043 ft | 469 kts | 276° |
| 2026-05-08 14:06 | 50.52469 | -9.24185 | 36041 ft | 470 kts | 276° |
| 2026-05-08 14:07 | 50.53690 | -9.34275 | 36042 ft | 470 kts | 276° |
| 2026-05-08 14:07 | 50.54905 | -9.44398 | 36041 ft | 470 kts | 276° |
| 2026-05-08 14:08 | 50.56109 | -9.54507 | 36043 ft | 470 kts | 276° |
| 2026-05-08 14:08 | 50.57297 | -9.64554 | 36043 ft | 470 kts | 276° |
| 2026-05-08 14:09 | 50.58487 | -9.74699 | 36044 ft | 470 kts | 276° |
| 2026-05-08 14:09 | 50.59666 | -9.84839 | 36049 ft | 471 kts | 275° |
| 2026-05-08 14:10 | 50.60836 | -9.94972 | 36044 ft | 471 kts | 275° |
| 2026-05-08 14:10 | 50.61999 | -10.05133 | 36047 ft | 471 kts | 275° |
| 2026-05-08 14:11 | 50.63151 | -10.15275 | 36042 ft | 471 kts | 275° |
| 2026-05-08 14:11 | 50.64291 | -10.25392 | 36044 ft | 471 kts | 275° |
| 2026-05-08 14:12 | 50.65425 | -10.35540 | 36043 ft | 471 kts | 275° |
| 2026-05-08 14:12 | 50.66554 | -10.45728 | 36044 ft | 471 kts | 275° |
| 2026-05-08 14:13 | 50.67672 | -10.55908 | 36045 ft | 471 kts | 275° |
| 2026-05-08 14:13 | 50.68782 | -10.66091 | 36043 ft | 471 kts | 275° |
| 2026-05-08 14:14 | 50.69885 | -10.76299 | 36047 ft | 471 kts | 275° |
| 2026-05-08 14:14 | 50.70978 | -10.86503 | 36038 ft | 471 kts | 275° |
| 2026-05-08 14:15 | 50.72054 | -10.96640 | 36043 ft | 472 kts | 275° |
| 2026-05-08 14:15 | 50.73129 | -11.06849 | 36041 ft | 472 kts | 275° |
| 2026-05-08 14:16 | 50.74194 | -11.17053 | 36047 ft | 472 kts | 274° |
| 2026-05-08 14:16 | 50.75254 | -11.27298 | 36045 ft | 472 kts | 274° |
| 2026-05-08 14:17 | 50.76301 | -11.37510 | 36046 ft | 472 kts | 274° |
| 2026-05-08 14:17 | 50.77341 | -11.47747 | 36050 ft | 471 kts | 274° |
| 2026-05-08 14:18 | 50.78371 | -11.57980 | 36049 ft | 471 kts | 274° |
| 2026-05-08 14:18 | 50.79392 | -11.68212 | 36045 ft | 471 kts | 274° |
| 2026-05-08 14:19 | 50.80398 | -11.78395 | 36043 ft | 471 kts | 274° |
| 2026-05-08 14:19 | 50.81400 | -11.88628 | 36042 ft | 471 kts | 274° |
| 2026-05-08 14:20 | 50.82393 | -11.98863 | 36048 ft | 470 kts | 274° |
| 2026-05-08 14:20 | 50.83376 | -12.09090 | 36049 ft | 470 kts | 274° |
| 2026-05-08 14:21 | 50.84348 | -12.19308 | 36049 ft | 470 kts | 273° |
| 2026-05-08 14:21 | 50.85309 | -12.29506 | 36047 ft | 470 kts | 273° |
| 2026-05-08 14:22 | 50.86265 | -12.39753 | 36046 ft | 470 kts | 273° |
| 2026-05-08 14:22 | 50.87212 | -12.49998 | 36046 ft | 470 kts | 273° |
| 2026-05-08 14:23 | 50.88151 | -12.60253 | 36049 ft | 471 kts | 273° |
| 2026-05-08 14:23 | 50.88925 | -12.68788 | 36048 ft | 471 kts | 273° |
| 2026-05-08 14:24 | 50.89848 | -12.79066 | 36056 ft | 471 kts | 273° |
| 2026-05-08 14:24 | 50.90764 | -12.89361 | 36052 ft | 471 kts | 272° |
| 2026-05-08 14:25 | 50.91670 | -12.99656 | 36050 ft | 472 kts | 272° |
| 2026-05-08 14:25 | 50.92568 | -13.09970 | 36046 ft | 472 kts | 272° |
| 2026-05-08 14:26 | 50.93451 | -13.20211 | 36057 ft | 473 kts | 272° |
| 2026-05-08 14:26 | 50.94333 | -13.30552 | 36060 ft | 473 kts | 272° |
| 2026-05-08 14:27 | 50.95207 | -13.40908 | 36050 ft | 473 kts | 272° |
| 2026-05-08 14:27 | 50.96072 | -13.51266 | 36056 ft | 473 kts | 272° |
| 2026-05-08 14:28 | 50.96929 | -13.61647 | 36057 ft | 474 kts | 272° |
| 2026-05-08 14:28 | 50.97774 | -13.72002 | 36058 ft | 474 kts | 272° |
| 2026-05-08 14:29 | 50.98613 | -13.82390 | 36056 ft | 474 kts | 272° |
| 2026-05-08 14:29 | 50.99437 | -13.92718 | 36060 ft | 474 kts | 272° |
| 2026-05-08 14:30 | 50.99990 | -14.03098 | 36058 ft | 470 kts | 266° |
| 2026-05-08 14:30 | 51.00087 | -14.13451 | 36064 ft | 469 kts | 265° |
| 2026-05-08 14:31 | 51.00106 | -14.23801 | 36054 ft | 469 kts | 265° |
| 2026-05-08 14:31 | 51.00111 | -14.34181 | 36062 ft | 469 kts | 265° |
| 2026-05-08 14:32 | 51.00116 | -14.44546 | 36174 ft | 469 kts | 265° |
| 2026-05-08 14:32 | 51.00116 | -14.49703 | 36460 ft | 467 kts | 265° |
| 2026-05-08 14:32 | 51.00115 | -14.54858 | 36692 ft | 467 kts | 265° |
| 2026-05-08 14:32 | 51.00111 | -14.60019 | 36875 ft | 468 kts | 266° |
| 2026-05-08 14:33 | 51.00105 | -14.65202 | 37060 ft | 468 kts | 266° |
| 2026-05-08 14:33 | 51.00097 | -14.70314 | 37235 ft | 469 kts | 266° |
| 2026-05-08 14:33 | 51.00087 | -14.75470 | 37409 ft | 469 kts | 266° |
| 2026-05-08 14:33 | 51.00074 | -14.80672 | 37575 ft | 470 kts | 266° |
| 2026-05-08 14:34 | 51.00060 | -14.85861 | 37737 ft | 471 kts | 266° |
| 2026-05-08 14:34 | 51.00043 | -14.91076 | 37909 ft | 471 kts | 267° |
| 2026-05-08 14:34 | 51.00023 | -14.96267 | 38031 ft | 472 kts | 267° |
| 2026-05-08 14:34 | 51.00018 | -15.01488 | 38071 ft | 476 kts | 268° |
| 2026-05-08 14:35 | 51.00193 | -15.12066 | 38060 ft | 480 kts | 269° |
| 2026-05-08 14:35 | 51.00444 | -15.22662 | 38063 ft | 479 kts | 269° |
| 2026-05-08 14:36 | 51.00669 | -15.33211 | 38069 ft | 479 kts | 269° |
| 2026-05-08 14:36 | 51.00866 | -15.43757 | 38064 ft | 479 kts | 269° |
| 2026-05-08 14:37 | 51.01046 | -15.54332 | 38067 ft | 479 kts | 269° |
| 2026-05-08 14:37 | 51.01216 | -15.64914 | 38070 ft | 480 kts | 269° |
| 2026-05-08 14:38 | 51.01378 | -15.75515 | 38066 ft | 480 kts | 269° |
| 2026-05-08 14:38 | 51.01530 | -15.86058 | 38070 ft | 480 kts | 269° |
| 2026-05-08 14:39 | 51.01673 | -15.96672 | 38068 ft | 480 kts | 269° |
| 2026-05-08 14:39 | 51.01808 | -16.07269 | 38068 ft | 480 kts | 269° |
| 2026-05-08 14:40 | 51.01932 | -16.17891 | 38070 ft | 480 kts | 269° |
| 2026-05-08 14:40 | 51.02047 | -16.28503 | 38073 ft | 481 kts | 268° |
| 2026-05-08 14:41 | 51.02153 | -16.39134 | 38072 ft | 481 kts | 268° |
| 2026-05-08 14:41 | 51.02249 | -16.49742 | 38072 ft | 481 kts | 268° |
| 2026-05-08 14:42 | 51.02335 | -16.60309 | 38076 ft | 481 kts | 268° |
| 2026-05-08 14:42 | 51.02411 | -16.70947 | 38074 ft | 481 kts | 268° |
| 2026-05-08 14:43 | 51.02475 | -16.81576 | 38075 ft | 481 kts | 268° |
| 2026-05-08 14:43 | 51.02533 | -16.92193 | 38075 ft | 481 kts | 268° |
| 2026-05-08 14:44 | 51.02580 | -17.02819 | 38082 ft | 481 kts | 268° |
| 2026-05-08 14:44 | 51.02620 | -17.13373 | 38084 ft | 481 kts | 268° |
| 2026-05-08 14:45 | 51.02651 | -17.24006 | 38078 ft | 481 kts | 268° |
| 2026-05-08 14:45 | 51.02670 | -17.34638 | 38079 ft | 481 kts | 268° |
| 2026-05-08 14:46 | 51.02676 | -17.45290 | 38077 ft | 481 kts | 268° |
| 2026-05-08 14:46 | 51.02675 | -17.55858 | 38083 ft | 481 kts | 268° |
| 2026-05-08 14:47 | 51.02666 | -17.66500 | 38082 ft | 481 kts | 268° |
| 2026-05-08 14:47 | 51.02648 | -17.77130 | 38082 ft | 481 kts | 268° |
| 2026-05-08 14:48 | 51.02620 | -17.87713 | 38082 ft | 481 kts | 268° |
| 2026-05-08 14:48 | 51.02581 | -17.98373 | 38083 ft | 482 kts | 268° |
| 2026-05-08 14:49 | 51.02532 | -18.09023 | 38084 ft | 482 kts | 268° |
| 2026-05-08 14:49 | 51.02470 | -18.19689 | 38086 ft | 482 kts | 268° |
| 2026-05-08 14:50 | 51.02402 | -18.30334 | 38086 ft | 483 kts | 268° |
| 2026-05-08 14:50 | 51.02325 | -18.41046 | 38090 ft | 483 kts | 268° |
| 2026-05-08 14:51 | 51.02238 | -18.51721 | 38092 ft | 484 kts | 268° |
| 2026-05-08 14:51 | 51.02141 | -18.62346 | 38098 ft | 484 kts | 268° |
| 2026-05-08 14:52 | 51.01975 | -18.78392 | 38097 ft | 485 kts | 268° |
| 2026-05-08 14:53 | 51.01852 | -18.89111 | 38101 ft | 485 kts | 268° |
| 2026-05-08 14:53 | 51.01720 | -18.99838 | 38104 ft | 485 kts | 268° |
| 2026-05-08 14:54 | 51.01576 | -19.10587 | 38105 ft | 486 kts | 268° |
| 2026-05-08 14:54 | 51.01425 | -19.21250 | 38107 ft | 486 kts | 268° |
| 2026-05-08 14:55 | 51.01263 | -19.32002 | 38112 ft | 486 kts | 268° |
| 2026-05-08 14:55 | 51.01091 | -19.42732 | 38115 ft | 487 kts | 268° |
| 2026-05-08 14:56 | 51.00909 | -19.53479 | 38120 ft | 487 kts | 268° |
| 2026-05-08 14:56 | 51.00719 | -19.64168 | 38119 ft | 487 kts | 268° |
| 2026-05-08 14:57 | 51.00516 | -19.74941 | 38122 ft | 487 kts | 268° |
| 2026-05-08 14:57 | 51.00304 | -19.85699 | 38124 ft | 488 kts | 268° |
| 2026-05-08 14:58 | 51.00082 | -19.96470 | 38128 ft | 488 kts | 268° |
| 2026-05-08 14:58 | 50.99694 | -20.07233 | 38126 ft | 489 kts | 266° |
| 2026-05-08 14:59 | 50.99054 | -20.18010 | 38133 ft | 489 kts | 265° |
| 2026-05-08 14:59 | 50.98064 | -20.34086 | 38138 ft | 490 kts | 265° |
| 2026-05-08 15:00 | 50.97424 | -20.44831 | 38139 ft | 490 kts | 265° |
| 2026-05-08 15:00 | 50.96779 | -20.55634 | 38139 ft | 491 kts | 266° |
| 2026-05-08 15:01 | 50.96124 | -20.66405 | 38144 ft | 491 kts | 266° |
| 2026-05-08 15:01 | 50.95456 | -20.77205 | 38148 ft | 492 kts | 266° |
| 2026-05-08 15:02 | 50.94776 | -20.88023 | 38152 ft | 492 kts | 266° |
| 2026-05-08 15:02 | 50.94093 | -20.98746 | 38152 ft | 493 kts | 266° |
| 2026-05-08 15:03 | 50.93393 | -21.09569 | 38154 ft | 493 kts | 266° |
| 2026-05-08 15:03 | 50.92682 | -21.20385 | 38155 ft | 494 kts | 266° |
| 2026-05-08 15:04 | 50.91959 | -21.31216 | 38159 ft | 494 kts | 266° |
| 2026-05-08 15:04 | 50.91228 | -21.42069 | 38160 ft | 495 kts | 266° |
| 2026-05-08 15:05 | 50.90487 | -21.52912 | 38163 ft | 495 kts | 266° |
| 2026-05-08 15:05 | 50.89734 | -21.63774 | 38172 ft | 495 kts | 266° |
| 2026-05-08 15:06 | 50.88973 | -21.74602 | 38169 ft | 496 kts | 266° |
| 2026-05-08 15:06 | 50.88199 | -21.85459 | 38170 ft | 496 kts | 266° |
| 2026-05-08 15:07 | 50.87414 | -21.96313 | 38174 ft | 496 kts | 266° |
| 2026-05-08 15:07 | 50.86616 | -22.07177 | 38174 ft | 497 kts | 266° |
| 2026-05-08 15:08 | 50.85947 | -22.16213 | 38188 ft | 497 kts | 266° |
| 2026-05-08 15:08 | 50.84995 | -22.28910 | 38186 ft | 498 kts | 266° |
| 2026-05-08 15:09 | 50.84172 | -22.39732 | 38186 ft | 498 kts | 266° |
| 2026-05-08 15:09 | 50.83336 | -22.50615 | 38186 ft | 498 kts | 266° |
| 2026-05-08 15:10 | 50.82489 | -22.61485 | 38191 ft | 498 kts | 266° |
| 2026-05-08 15:10 | 50.81627 | -22.72364 | 38197 ft | 499 kts | 266° |
| 2026-05-08 15:11 | 50.80904 | -22.81411 | 38201 ft | 499 kts | 266° |
| 2026-05-08 15:11 | 50.80027 | -22.92298 | 38204 ft | 499 kts | 266° |
| 2026-05-08 15:12 | 50.79137 | -23.03201 | 38200 ft | 500 kts | 266° |
| 2026-05-08 15:12 | 50.78235 | -23.14089 | 38208 ft | 500 kts | 266° |
| 2026-05-08 15:13 | 50.77324 | -23.24996 | 38210 ft | 500 kts | 266° |
| 2026-05-08 15:13 | 50.76404 | -23.35886 | 38215 ft | 500 kts | 266° |
| 2026-05-08 15:14 | 50.75472 | -23.46771 | 38224 ft | 500 kts | 266° |
| 2026-05-08 15:14 | 50.74530 | -23.57669 | 38221 ft | 501 kts | 266° |
| 2026-05-08 15:15 | 50.73578 | -23.68558 | 38220 ft | 501 kts | 266° |
| 2026-05-08 15:15 | 50.72615 | -23.79452 | 38220 ft | 501 kts | 266° |
| 2026-05-08 15:16 | 50.71641 | -23.90353 | 38229 ft | 501 kts | 266° |
| 2026-05-08 15:16 | 50.70664 | -24.01169 | 38238 ft | 501 kts | 266° |
| 2026-05-08 15:17 | 50.69669 | -24.12059 | 38240 ft | 501 kts | 266° |
| 2026-05-08 15:17 | 50.68664 | -24.22940 | 38243 ft | 501 kts | 266° |
| 2026-05-08 15:18 | 50.67648 | -24.33829 | 38246 ft | 501 kts | 266° |
| 2026-05-08 15:18 | 50.66625 | -24.44686 | 38249 ft | 501 kts | 266° |
| 2026-05-08 15:19 | 50.65590 | -24.55552 | 38250 ft | 501 kts | 266° |
| 2026-05-08 15:19 | 50.64546 | -24.66418 | 38255 ft | 501 kts | 266° |
| 2026-05-08 15:20 | 50.63498 | -24.77204 | 38257 ft | 501 kts | 266° |
| 2026-05-08 15:20 | 50.62433 | -24.88051 | 38262 ft | 501 kts | 266° |
| 2026-05-08 15:21 | 50.61360 | -24.98886 | 38267 ft | 501 kts | 266° |
| 2026-05-08 15:21 | 50.60275 | -25.09726 | 38264 ft | 501 kts | 266° |
| 2026-05-08 15:22 | 50.59179 | -25.20575 | 38264 ft | 501 kts | 266° |
| 2026-05-08 15:22 | 50.58081 | -25.31337 | 38275 ft | 501 kts | 266° |
| 2026-05-08 15:23 | 50.56966 | -25.42167 | 38288 ft | 501 kts | 266° |
| 2026-05-08 15:23 | 50.55843 | -25.52969 | 38288 ft | 501 kts | 266° |
| 2026-05-08 15:24 | 50.54705 | -25.63810 | 38292 ft | 501 kts | 266° |
| 2026-05-08 15:24 | 50.53560 | -25.74621 | 38290 ft | 501 kts | 266° |
| 2026-05-08 15:25 | 50.52410 | -25.85381 | 38292 ft | 502 kts | 266° |
| 2026-05-08 15:25 | 50.51245 | -25.96189 | 38295 ft | 502 kts | 266° |
| 2026-05-08 15:26 | 50.50068 | -26.07016 | 38299 ft | 502 kts | 266° |
| 2026-05-08 15:26 | 50.48882 | -26.17817 | 38305 ft | 502 kts | 266° |
| 2026-05-08 15:27 | 50.47683 | -26.28635 | 38304 ft | 502 kts | 266° |
| 2026-05-08 15:27 | 50.46474 | -26.39439 | 38308 ft | 502 kts | 266° |
| 2026-05-08 15:28 | 50.45252 | -26.50260 | 38311 ft | 502 kts | 266° |
| 2026-05-08 15:28 | 50.44032 | -26.60990 | 38313 ft | 502 kts | 266° |
| 2026-05-08 15:29 | 50.42795 | -26.71776 | 38323 ft | 502 kts | 266° |
| 2026-05-08 15:29 | 50.41549 | -26.82551 | 38322 ft | 503 kts | 266° |
| 2026-05-08 15:30 | 50.40290 | -26.93340 | 38328 ft | 503 kts | 266° |
| 2026-05-08 15:30 | 50.39027 | -27.04071 | 38326 ft | 503 kts | 266° |
| 2026-05-08 15:31 | 50.37746 | -27.14869 | 38325 ft | 504 kts | 266° |
| 2026-05-08 15:31 | 50.36455 | -27.25663 | 38333 ft | 504 kts | 265° |
| 2026-05-08 15:32 | 50.35154 | -27.36446 | 38339 ft | 504 kts | 265° |
| 2026-05-08 15:32 | 50.33839 | -27.47257 | 38340 ft | 504 kts | 265° |
| 2026-05-08 15:33 | 50.32526 | -27.57963 | 38343 ft | 504 kts | 265° |
| 2026-05-08 15:33 | 50.31193 | -27.68747 | 38349 ft | 504 kts | 265° |
| 2026-05-08 15:34 | 50.29849 | -27.79524 | 38355 ft | 504 kts | 265° |
| 2026-05-08 15:34 | 50.28502 | -27.90248 | 38358 ft | 503 kts | 265° |
| 2026-05-08 15:35 | 50.27143 | -28.00977 | 38363 ft | 502 kts | 265° |
| 2026-05-08 15:35 | 50.25779 | -28.11670 | 38362 ft | 501 kts | 265° |
| 2026-05-08 15:36 | 50.24639 | -28.20543 | 38361 ft | 501 kts | 265° |
| 2026-05-08 15:36 | 50.23036 | -28.32925 | 38369 ft | 500 kts | 265° |
| 2026-05-08 15:37 | 50.21649 | -28.43550 | 38371 ft | 499 kts | 265° |
| 2026-05-08 15:37 | 50.20255 | -28.54153 | 38371 ft | 498 kts | 265° |
| 2026-05-08 15:38 | 50.18850 | -28.64754 | 38373 ft | 498 kts | 265° |
| 2026-05-08 15:38 | 50.17441 | -28.75310 | 38377 ft | 497 kts | 265° |
| 2026-05-08 15:39 | 50.16021 | -28.85870 | 38382 ft | 497 kts | 265° |
| 2026-05-08 15:39 | 50.14599 | -28.96367 | 38387 ft | 496 kts | 264° |
| 2026-05-08 15:40 | 50.13163 | -29.06887 | 38381 ft | 496 kts | 264° |
| 2026-05-08 15:40 | 50.11715 | -29.17423 | 38382 ft | 495 kts | 264° |
| 2026-05-08 15:41 | 50.10272 | -29.27846 | 38392 ft | 495 kts | 264° |
| 2026-05-08 15:41 | 50.08803 | -29.38385 | 38393 ft | 495 kts | 264° |
| 2026-05-08 15:42 | 50.07333 | -29.48853 | 38396 ft | 494 kts | 264° |
| 2026-05-08 15:42 | 50.05866 | -29.59226 | 38398 ft | 494 kts | 264° |
| 2026-05-08 15:43 | 50.04379 | -29.69673 | 38394 ft | 493 kts | 264° |
| 2026-05-08 15:43 | 50.02882 | -29.80116 | 38403 ft | 493 kts | 264° |
| 2026-05-08 15:44 | 50.01381 | -29.90517 | 38408 ft | 493 kts | 264° |
| 2026-05-08 15:44 | 49.99868 | -30.00914 | 38408 ft | 493 kts | 263° |
| 2026-05-08 15:45 | 49.98324 | -30.11227 | 38412 ft | 493 kts | 263° |
| 2026-05-08 15:45 | 49.96748 | -30.21582 | 38411 ft | 492 kts | 263° |
| 2026-05-08 15:46 | 49.95167 | -30.31919 | 38411 ft | 492 kts | 263° |
| 2026-05-08 15:46 | 49.93579 | -30.42258 | 38416 ft | 492 kts | 263° |
| 2026-05-08 15:47 | 49.91986 | -30.52566 | 38418 ft | 492 kts | 263° |
| 2026-05-08 15:47 | 49.90381 | -30.62892 | 38423 ft | 491 kts | 263° |
| 2026-05-08 15:48 | 49.87969 | -30.78280 | 38423 ft | 491 kts | 263° |
| 2026-05-08 15:49 | 49.86342 | -30.88578 | 38422 ft | 491 kts | 263° |
| 2026-05-08 15:49 | 49.84708 | -30.98859 | 38422 ft | 491 kts | 263° |
| 2026-05-08 15:50 | 49.83065 | -31.09125 | 38422 ft | 491 kts | 263° |
| 2026-05-08 15:50 | 49.81410 | -31.19405 | 38426 ft | 491 kts | 263° |
| 2026-05-08 15:51 | 49.79758 | -31.29607 | 38422 ft | 491 kts | 263° |
| 2026-05-08 15:51 | 49.78088 | -31.39853 | 38426 ft | 491 kts | 263° |
| 2026-05-08 15:52 | 49.76411 | -31.50086 | 38427 ft | 491 kts | 263° |
| 2026-05-08 15:52 | 49.74724 | -31.60311 | 38433 ft | 491 kts | 263° |
| 2026-05-08 15:53 | 49.73025 | -31.70553 | 38435 ft | 491 kts | 263° |
| 2026-05-08 15:53 | 49.71322 | -31.80752 | 38432 ft | 491 kts | 263° |
| 2026-05-08 15:54 | 49.69608 | -31.90964 | 38437 ft | 491 kts | 263° |
| 2026-05-08 15:54 | 49.67884 | -32.01169 | 38433 ft | 490 kts | 263° |
| 2026-05-08 15:55 | 49.66159 | -32.11317 | 38432 ft | 490 kts | 263° |
| 2026-05-08 15:55 | 49.63548 | -32.26572 | 38433 ft | 490 kts | 263° |
| 2026-05-08 15:56 | 49.61796 | -32.36738 | 38430 ft | 490 kts | 263° |
| 2026-05-08 15:56 | 49.60036 | -32.46892 | 38434 ft | 490 kts | 263° |
| 2026-05-08 15:57 | 49.58567 | -32.55315 | 38430 ft | 490 kts | 262° |
| 2026-05-08 15:57 | 49.56793 | -32.65441 | 38443 ft | 489 kts | 262° |
| 2026-05-08 15:58 | 49.55010 | -32.75560 | 38440 ft | 490 kts | 262° |
| 2026-05-08 15:58 | 49.53217 | -32.85679 | 38442 ft | 490 kts | 262° |
| 2026-05-08 15:59 | 49.51416 | -32.95781 | 38437 ft | 490 kts | 262° |
| 2026-05-08 15:59 | 49.49603 | -33.05898 | 38440 ft | 490 kts | 262° |
| 2026-05-08 16:00 | 49.47792 | -33.15944 | 38442 ft | 490 kts | 262° |
| 2026-05-08 16:00 | 49.45960 | -33.26057 | 38442 ft | 491 kts | 262° |
| 2026-05-08 16:01 | 49.44115 | -33.36176 | 38436 ft | 491 kts | 262° |
| 2026-05-08 16:01 | 49.42263 | -33.46282 | 38439 ft | 491 kts | 262° |
| 2026-05-08 16:02 | 49.40400 | -33.56392 | 38440 ft | 491 kts | 262° |
| 2026-05-08 16:02 | 49.38531 | -33.66479 | 38440 ft | 491 kts | 262° |
| 2026-05-08 16:03 | 49.36655 | -33.76554 | 38435 ft | 491 kts | 262° |
| 2026-05-08 16:03 | 49.34778 | -33.86570 | 38438 ft | 492 kts | 262° |
| 2026-05-08 16:04 | 49.32880 | -33.96649 | 38433 ft | 492 kts | 262° |
| 2026-05-08 16:04 | 49.30971 | -34.06734 | 38435 ft | 492 kts | 262° |
| 2026-05-08 16:05 | 49.29057 | -34.16790 | 38435 ft | 492 kts | 262° |
| 2026-05-08 16:05 | 49.27132 | -34.26848 | 38428 ft | 492 kts | 262° |
| 2026-05-08 16:06 | 49.25201 | -34.36887 | 38434 ft | 492 kts | 262° |
| 2026-05-08 16:06 | 49.23268 | -34.46882 | 38437 ft | 492 kts | 262° |
| 2026-05-08 16:07 | 49.21320 | -34.56899 | 38429 ft | 492 kts | 262° |
| 2026-05-08 16:07 | 49.19360 | -34.66930 | 38432 ft | 492 kts | 262° |
| 2026-05-08 16:08 | 49.17389 | -34.76962 | 38436 ft | 492 kts | 262° |
| 2026-05-08 16:08 | 49.15413 | -34.86969 | 38437 ft | 492 kts | 261° |
| 2026-05-08 16:09 | 49.13425 | -34.96983 | 38440 ft | 492 kts | 261° |
| 2026-05-08 16:09 | 49.11441 | -35.06926 | 38441 ft | 492 kts | 261° |
| 2026-05-08 16:10 | 49.09434 | -35.16933 | 38430 ft | 492 kts | 261° |
| 2026-05-08 16:10 | 49.07423 | -35.26911 | 38427 ft | 492 kts | 261° |
| 2026-05-08 16:11 | 49.05403 | -35.36881 | 38429 ft | 493 kts | 261° |
| 2026-05-08 16:11 | 49.03366 | -35.46879 | 38427 ft | 493 kts | 261° |
| 2026-05-08 16:12 | 49.01327 | -35.56840 | 38430 ft | 493 kts | 261° |
| 2026-05-08 16:12 | 48.99274 | -35.66825 | 38425 ft | 493 kts | 261° |
| 2026-05-08 16:13 | 48.97211 | -35.76803 | 38425 ft | 494 kts | 261° |
| 2026-05-08 16:13 | 48.95150 | -35.86727 | 38425 ft | 495 kts | 261° |
| 2026-05-08 16:14 | 48.93053 | -35.96774 | 38425 ft | 495 kts | 261° |
| 2026-05-08 16:14 | 48.90976 | -36.06674 | 38423 ft | 495 kts | 261° |
| 2026-05-08 16:15 | 48.88869 | -36.16668 | 38422 ft | 496 kts | 261° |
| 2026-05-08 16:15 | 48.86750 | -36.26668 | 38420 ft | 497 kts | 261° |
| 2026-05-08 16:16 | 48.84628 | -36.36632 | 38419 ft | 497 kts | 261° |
| 2026-05-08 16:16 | 48.82487 | -36.46635 | 38417 ft | 497 kts | 261° |
| 2026-05-08 16:17 | 48.80700 | -36.54952 | 38415 ft | 498 kts | 261° |
| 2026-05-08 16:17 | 48.78195 | -36.66552 | 38412 ft | 498 kts | 260° |
| 2026-05-08 16:18 | 48.76025 | -36.76545 | 38406 ft | 499 kts | 260° |
| 2026-05-08 16:18 | 48.73844 | -36.86540 | 38415 ft | 500 kts | 260° |
| 2026-05-08 16:19 | 48.71655 | -36.96523 | 38408 ft | 500 kts | 260° |
| 2026-05-08 16:19 | 48.69452 | -37.06524 | 38406 ft | 501 kts | 259° |
| 2026-05-08 16:20 | 48.67252 | -37.16463 | 38401 ft | 501 kts | 259° |
| 2026-05-08 16:20 | 48.65028 | -37.26465 | 38408 ft | 501 kts | 259° |
| 2026-05-08 16:21 | 48.62793 | -37.36465 | 38404 ft | 502 kts | 259° |
| 2026-05-08 16:21 | 48.60550 | -37.46452 | 38407 ft | 502 kts | 259° |
| 2026-05-08 16:22 | 48.58293 | -37.56456 | 38400 ft | 502 kts | 259° |
| 2026-05-08 16:22 | 48.56041 | -37.66389 | 38398 ft | 502 kts | 258° |
| 2026-05-08 16:23 | 48.53767 | -37.76375 | 38398 ft | 503 kts | 258° |
| 2026-05-08 16:23 | 48.51487 | -37.86341 | 38396 ft | 503 kts | 258° |
| 2026-05-08 16:24 | 48.49198 | -37.96297 | 38396 ft | 503 kts | 258° |
| 2026-05-08 16:24 | 48.46900 | -38.06248 | 38391 ft | 503 kts | 258° |
| 2026-05-08 16:25 | 48.44591 | -38.16203 | 38389 ft | 503 kts | 258° |
| 2026-05-08 16:25 | 48.42269 | -38.26161 | 38386 ft | 503 kts | 257° |
| 2026-05-08 16:26 | 48.39946 | -38.36080 | 38388 ft | 503 kts | 257° |
| 2026-05-08 16:26 | 48.37616 | -38.45987 | 38386 ft | 502 kts | 257° |
| 2026-05-08 16:27 | 48.35272 | -38.55903 | 38384 ft | 502 kts | 257° |
| 2026-05-08 16:27 | 48.32923 | -38.65798 | 38380 ft | 502 kts | 257° |
| 2026-05-08 16:28 | 48.30570 | -38.75666 | 38384 ft | 501 kts | 257° |
| 2026-05-08 16:28 | 48.28226 | -38.85450 | 38379 ft | 501 kts | 256° |
| 2026-05-08 16:29 | 48.25857 | -38.95293 | 38376 ft | 500 kts | 256° |
| 2026-05-08 16:29 | 48.23483 | -39.05118 | 38377 ft | 500 kts | 256° |
| 2026-05-08 16:30 | 48.21109 | -39.14897 | 38368 ft | 499 kts | 256° |
| 2026-05-08 16:30 | 48.18725 | -39.24674 | 38373 ft | 499 kts | 256° |
| 2026-05-08 16:31 | 48.16345 | -39.34390 | 38369 ft | 499 kts | 255° |
| 2026-05-08 16:31 | 48.13942 | -39.44159 | 38367 ft | 498 kts | 255° |
| 2026-05-08 16:32 | 48.11549 | -39.53844 | 38364 ft | 498 kts | 255° |
| 2026-05-08 16:32 | 48.09136 | -39.63570 | 38363 ft | 498 kts | 255° |
| 2026-05-08 16:33 | 48.06720 | -39.73265 | 38358 ft | 498 kts | 255° |
| 2026-05-08 16:33 | 48.04288 | -39.82981 | 38355 ft | 498 kts | 255° |
| 2026-05-08 16:34 | 48.01870 | -39.92601 | 38353 ft | 498 kts | 255° |
| 2026-05-08 16:34 | 47.99693 | -40.02371 | 38353 ft | 492 kts | 261° |
| 2026-05-08 16:35 | 47.98112 | -40.12294 | 38350 ft | 491 kts | 262° |
| 2026-05-08 16:35 | 47.96614 | -40.22265 | 38346 ft | 491 kts | 263° |
| 2026-05-08 16:36 | 47.95112 | -40.32231 | 38342 ft | 491 kts | 262° |
| 2026-05-08 16:36 | 47.93600 | -40.42116 | 38340 ft | 491 kts | 262° |
| 2026-05-08 16:37 | 47.92064 | -40.52049 | 38337 ft | 491 kts | 262° |
| 2026-05-08 16:37 | 47.90521 | -40.61961 | 38333 ft | 491 kts | 262° |
| 2026-05-08 16:38 | 47.88966 | -40.71891 | 38336 ft | 490 kts | 262° |
| 2026-05-08 16:38 | 47.87419 | -40.81715 | 38335 ft | 490 kts | 261° |
| 2026-05-08 16:39 | 47.85856 | -40.91586 | 38338 ft | 489 kts | 261° |
| 2026-05-08 16:39 | 47.84281 | -41.01468 | 38328 ft | 489 kts | 261° |
| 2026-05-08 16:40 | 47.82703 | -41.11309 | 38333 ft | 488 kts | 261° |
| 2026-05-08 16:40 | 47.81120 | -41.21128 | 38325 ft | 488 kts | 261° |
| 2026-05-08 16:41 | 47.79527 | -41.30947 | 38331 ft | 488 kts | 261° |
| 2026-05-08 16:42 | 47.77135 | -41.45585 | 38323 ft | 487 kts | 260° |
| 2026-05-08 16:42 | 47.75530 | -41.55336 | 38321 ft | 486 kts | 260° |
| 2026-05-08 16:43 | 47.73912 | -41.65112 | 38321 ft | 486 kts | 260° |
| 2026-05-08 16:43 | 47.72289 | -41.74861 | 38317 ft | 486 kts | 259° |
| 2026-05-08 16:44 | 47.70658 | -41.84602 | 38319 ft | 486 kts | 259° |
| 2026-05-08 16:44 | 47.69021 | -41.94320 | 38314 ft | 486 kts | 259° |
| 2026-05-08 16:45 | 47.67386 | -42.03976 | 38313 ft | 485 kts | 259° |
| 2026-05-08 16:45 | 47.65728 | -42.13712 | 38310 ft | 485 kts | 259° |
| 2026-05-08 16:46 | 47.64348 | -42.21771 | 38302 ft | 485 kts | 259° |
| 2026-05-08 16:46 | 47.62679 | -42.31473 | 38302 ft | 485 kts | 258° |
| 2026-05-08 16:47 | 47.61000 | -42.41179 | 38298 ft | 485 kts | 258° |
| 2026-05-08 16:47 | 47.59314 | -42.50875 | 38289 ft | 485 kts | 258° |
| 2026-05-08 16:48 | 47.57622 | -42.60546 | 38292 ft | 485 kts | 258° |
| 2026-05-08 16:48 | 47.55933 | -42.70149 | 38294 ft | 485 kts | 258° |
| 2026-05-08 16:49 | 47.54223 | -42.79826 | 38287 ft | 485 kts | 258° |
| 2026-05-08 16:49 | 47.52504 | -42.89491 | 38285 ft | 485 kts | 258° |
| 2026-05-08 16:50 | 47.50782 | -42.99128 | 38284 ft | 484 kts | 258° |
| 2026-05-08 16:50 | 47.49059 | -43.08720 | 38282 ft | 484 kts | 257° |
| 2026-05-08 16:51 | 47.47325 | -43.18319 | 38277 ft | 484 kts | 257° |
| 2026-05-08 16:51 | 47.45576 | -43.27954 | 38273 ft | 484 kts | 257° |
| 2026-05-08 16:52 | 47.43820 | -43.37570 | 38259 ft | 484 kts | 257° |
| 2026-05-08 16:52 | 47.42058 | -43.47173 | 38270 ft | 484 kts | 257° |
| 2026-05-08 16:53 | 47.39402 | -43.61555 | 38250 ft | 484 kts | 257° |
| 2026-05-08 16:53 | 47.37620 | -43.71142 | 38249 ft | 484 kts | 257° |
| 2026-05-08 16:54 | 47.35840 | -43.80666 | 38247 ft | 484 kts | 257° |
| 2026-05-08 16:54 | 47.34041 | -43.90249 | 38246 ft | 484 kts | 257° |
| 2026-05-08 16:55 | 47.32235 | -43.99817 | 38236 ft | 484 kts | 256° |
| 2026-05-08 16:55 | 47.30421 | -44.09379 | 38234 ft | 484 kts | 256° |
| 2026-05-08 16:56 | 47.28596 | -44.18948 | 38232 ft | 484 kts | 256° |
| 2026-05-08 16:56 | 47.26776 | -44.28445 | 38232 ft | 484 kts | 256° |
| 2026-05-08 16:57 | 47.24935 | -44.38001 | 38220 ft | 484 kts | 256° |
| 2026-05-08 16:57 | 47.23089 | -44.47539 | 38222 ft | 484 kts | 256° |
| 2026-05-08 16:58 | 47.21245 | -44.57018 | 38213 ft | 484 kts | 256° |
| 2026-05-08 16:58 | 47.19378 | -44.66566 | 38210 ft | 484 kts | 256° |
| 2026-05-08 16:59 | 47.17526 | -44.75996 | 38207 ft | 484 kts | 256° |
| 2026-05-08 16:59 | 47.15652 | -44.85488 | 38205 ft | 484 kts | 256° |
| 2026-05-08 17:00 | 47.13770 | -44.94974 | 38198 ft | 483 kts | 256° |
| 2026-05-08 17:00 | 47.11881 | -45.04446 | 38204 ft | 483 kts | 256° |
| 2026-05-08 17:01 | 47.09989 | -45.13893 | 38187 ft | 483 kts | 256° |
| 2026-05-08 17:01 | 47.08081 | -45.23374 | 38184 ft | 482 kts | 256° |
| 2026-05-08 17:02 | 47.06171 | -45.32815 | 38172 ft | 483 kts | 256° |
| 2026-05-08 17:02 | 47.04253 | -45.42252 | 38173 ft | 482 kts | 255° |
| 2026-05-08 17:03 | 47.02342 | -45.51610 | 38169 ft | 482 kts | 255° |
| 2026-05-08 17:03 | 47.00412 | -45.61020 | 38160 ft | 482 kts | 255° |
| 2026-05-08 17:04 | 46.98479 | -45.70396 | 38156 ft | 481 kts | 255° |
| 2026-05-08 17:04 | 46.96537 | -45.79776 | 38154 ft | 481 kts | 255° |
| 2026-05-08 17:05 | 46.94585 | -45.89156 | 38148 ft | 481 kts | 255° |
| 2026-05-08 17:05 | 46.92633 | -45.98494 | 38140 ft | 480 kts | 255° |
| 2026-05-08 17:06 | 46.90667 | -46.07854 | 38136 ft | 480 kts | 255° |
| 2026-05-08 17:06 | 46.88710 | -46.17135 | 38131 ft | 480 kts | 255° |
| 2026-05-08 17:07 | 46.86738 | -46.26440 | 38127 ft | 479 kts | 254° |
| 2026-05-08 17:07 | 46.84757 | -46.35743 | 38122 ft | 479 kts | 254° |
| 2026-05-08 17:08 | 46.82770 | -46.45035 | 38121 ft | 478 kts | 254° |
| 2026-05-08 17:08 | 46.80779 | -46.54302 | 38111 ft | 478 kts | 254° |
| 2026-05-08 17:09 | 46.78785 | -46.63546 | 38102 ft | 477 kts | 253° |
| 2026-05-08 17:09 | 46.76796 | -46.72720 | 38098 ft | 477 kts | 253° |
| 2026-05-08 17:10 | 46.74789 | -46.81938 | 38095 ft | 476 kts | 253° |
| 2026-05-08 17:10 | 46.72779 | -46.91130 | 38091 ft | 475 kts | 253° |
| 2026-05-08 17:11 | 46.70763 | -47.00308 | 38082 ft | 475 kts | 253° |
| 2026-05-08 17:11 | 46.68745 | -47.09454 | 38086 ft | 474 kts | 253° |
| 2026-05-08 17:12 | 46.66718 | -47.18600 | 38068 ft | 473 kts | 253° |
| 2026-05-08 17:12 | 46.64692 | -47.27705 | 38062 ft | 473 kts | 252° |
| 2026-05-08 17:13 | 46.62673 | -47.36739 | 38072 ft | 472 kts | 252° |
| 2026-05-08 17:13 | 46.60641 | -47.45796 | 38063 ft | 471 kts | 252° |
| 2026-05-08 17:14 | 46.58598 | -47.54858 | 38062 ft | 471 kts | 252° |
| 2026-05-08 17:14 | 46.56553 | -47.63893 | 38058 ft | 470 kts | 252° |
| 2026-05-08 17:15 | 46.54504 | -47.72906 | 38052 ft | 470 kts | 252° |
| 2026-05-08 17:15 | 46.52443 | -47.81937 | 38048 ft | 469 kts | 252° |
| 2026-05-08 17:16 | 46.50396 | -47.90866 | 38044 ft | 469 kts | 251° |
| 2026-05-08 17:16 | 46.48333 | -47.99826 | 38037 ft | 468 kts | 251° |
| 2026-05-08 17:17 | 46.46255 | -48.08817 | 38033 ft | 468 kts | 251° |
| 2026-05-08 17:17 | 46.44181 | -48.17753 | 38028 ft | 467 kts | 251° |
| 2026-05-08 17:18 | 46.42103 | -48.26671 | 38023 ft | 467 kts | 251° |
| 2026-05-08 17:18 | 46.40019 | -48.35576 | 38016 ft | 466 kts | 251° |
| 2026-05-08 17:19 | 46.37930 | -48.44467 | 38010 ft | 466 kts | 251° |
| 2026-05-08 17:19 | 46.35834 | -48.53353 | 38004 ft | 465 kts | 251° |
| 2026-05-08 17:20 | 46.33750 | -48.62150 | 38002 ft | 465 kts | 251° |
| 2026-05-08 17:20 | 46.31646 | -48.70998 | 37996 ft | 464 kts | 251° |
| 2026-05-08 17:21 | 46.29540 | -48.79815 | 37994 ft | 463 kts | 251° |
| 2026-05-08 17:21 | 46.27432 | -48.88609 | 37985 ft | 463 kts | 250° |
| 2026-05-08 17:22 | 46.25322 | -48.97376 | 37984 ft | 462 kts | 250° |
| 2026-05-08 17:22 | 46.23214 | -49.06103 | 37975 ft | 462 kts | 250° |
| 2026-05-08 17:23 | 46.21093 | -49.14848 | 37977 ft | 461 kts | 250° |
| 2026-05-08 17:23 | 46.18971 | -49.23563 | 37969 ft | 460 kts | 250° |
| 2026-05-08 17:24 | 46.16840 | -49.32280 | 37965 ft | 460 kts | 250° |
| 2026-05-08 17:24 | 46.14706 | -49.40974 | 37957 ft | 459 kts | 250° |
| 2026-05-08 17:25 | 46.12572 | -49.49636 | 37955 ft | 458 kts | 250° |
| 2026-05-08 17:25 | 46.10428 | -49.58307 | 37949 ft | 458 kts | 250° |
| 2026-05-08 17:26 | 46.08297 | -49.66913 | 37931 ft | 453 kts | 248° |
| 2026-05-08 17:26 | 46.06186 | -49.75390 | 37932 ft | 447 kts | 248° |
| 2026-05-08 17:27 | 46.04093 | -49.83741 | 37931 ft | 446 kts | 248° |
| 2026-05-08 17:27 | 46.01985 | -49.92126 | 37933 ft | 446 kts | 248° |
| 2026-05-08 17:28 | 45.99873 | -50.00525 | 37927 ft | 446 kts | 248° |
| 2026-05-08 17:28 | 45.97835 | -50.08930 | 37916 ft | 445 kts | 249° |
| 2026-05-08 17:29 | 45.95821 | -50.17364 | 37925 ft | 445 kts | 249° |
| 2026-05-08 17:29 | 45.93802 | -50.25772 | 37906 ft | 445 kts | 248° |
| 2026-05-08 17:30 | 45.91773 | -50.34155 | 37897 ft | 444 kts | 248° |
| 2026-05-08 17:30 | 45.89735 | -50.42533 | 37898 ft | 444 kts | 248° |
| 2026-05-08 17:31 | 45.87712 | -50.50816 | 37896 ft | 443 kts | 248° |
| 2026-05-08 17:31 | 45.85663 | -50.59175 | 37895 ft | 442 kts | 248° |
| 2026-05-08 17:32 | 45.83618 | -50.67491 | 37889 ft | 442 kts | 248° |
| 2026-05-08 17:32 | 45.81569 | -50.75790 | 37883 ft | 441 kts | 248° |
| 2026-05-08 17:33 | 45.79513 | -50.84088 | 37876 ft | 441 kts | 248° |
| 2026-05-08 17:33 | 45.77806 | -50.90953 | 37876 ft | 440 kts | 248° |
| 2026-05-08 17:34 | 45.75409 | -51.00563 | 37869 ft | 440 kts | 247° |
| 2026-05-08 17:34 | 45.73681 | -51.07463 | 37861 ft | 439 kts | 247° |
| 2026-05-08 17:35 | 45.71630 | -51.15625 | 37864 ft | 439 kts | 247° |
| 2026-05-08 17:35 | 45.69562 | -51.23826 | 37858 ft | 438 kts | 247° |
| 2026-05-08 17:36 | 45.67489 | -51.32019 | 37853 ft | 438 kts | 247° |
| 2026-05-08 17:36 | 45.65412 | -51.40198 | 37844 ft | 437 kts | 246° |
| 2026-05-08 17:37 | 45.63331 | -51.48363 | 37844 ft | 436 kts | 246° |
| 2026-05-08 17:37 | 45.61250 | -51.56503 | 37836 ft | 436 kts | 246° |
| 2026-05-08 17:38 | 45.59164 | -51.64630 | 37828 ft | 435 kts | 246° |
| 2026-05-08 17:38 | 45.57075 | -51.72742 | 37828 ft | 435 kts | 246° |
| 2026-05-08 17:39 | 45.54995 | -51.80789 | 37824 ft | 434 kts | 246° |
| 2026-05-08 17:39 | 45.52900 | -51.88865 | 37819 ft | 434 kts | 246° |
| 2026-05-08 17:40 | 45.50802 | -51.96929 | 37815 ft | 434 kts | 245° |
| 2026-05-08 17:40 | 45.48683 | -52.04991 | 37808 ft | 433 kts | 245° |
| 2026-05-08 17:41 | 45.46540 | -52.13025 | 37806 ft | 432 kts | 245° |
| 2026-05-08 17:41 | 45.44401 | -52.21011 | 37801 ft | 432 kts | 245° |
| 2026-05-08 17:42 | 45.42252 | -52.29013 | 37798 ft | 432 kts | 244° |
| 2026-05-08 17:42 | 45.40115 | -52.36953 | 37793 ft | 432 kts | 244° |
| 2026-05-08 17:43 | 45.37963 | -52.44925 | 37788 ft | 432 kts | 244° |
| 2026-05-08 17:43 | 45.35803 | -52.52895 | 37785 ft | 432 kts | 244° |
| 2026-05-08 17:44 | 45.33636 | -52.60867 | 37780 ft | 432 kts | 244° |
| 2026-05-08 17:44 | 45.31477 | -52.68783 | 37778 ft | 432 kts | 244° |
| 2026-05-08 17:45 | 45.29299 | -52.76742 | 37775 ft | 432 kts | 243° |
| 2026-05-08 17:45 | 45.27117 | -52.84690 | 37770 ft | 432 kts | 243° |
| 2026-05-08 17:46 | 45.24925 | -52.92649 | 37763 ft | 432 kts | 243° |
| 2026-05-08 17:46 | 45.22730 | -53.00592 | 37764 ft | 432 kts | 243° |
| 2026-05-08 17:47 | 45.20527 | -53.08540 | 37761 ft | 433 kts | 243° |
| 2026-05-08 17:47 | 45.18694 | -53.15130 | 37758 ft | 433 kts | 243° |
| 2026-05-08 17:48 | 45.16119 | -53.24360 | 37749 ft | 433 kts | 242° |
| 2026-05-08 17:48 | 45.13893 | -53.32309 | 37747 ft | 433 kts | 242° |
| 2026-05-08 17:49 | 45.11666 | -53.40236 | 37742 ft | 434 kts | 242° |
| 2026-05-08 17:49 | 45.09440 | -53.48135 | 37741 ft | 434 kts | 242° |
| 2026-05-08 17:50 | 45.07196 | -53.56069 | 37743 ft | 434 kts | 242° |
| 2026-05-08 17:50 | 45.04950 | -53.63990 | 37721 ft | 435 kts | 242° |
| 2026-05-08 17:51 | 45.02691 | -53.71928 | 37727 ft | 435 kts | 242° |
| 2026-05-08 17:51 | 45.00424 | -53.79869 | 37720 ft | 436 kts | 242° |
| 2026-05-08 17:52 | 44.98149 | -53.87812 | 37716 ft | 436 kts | 242° |
| 2026-05-08 17:53 | 44.94724 | -53.99724 | 37708 ft | 436 kts | 241° |
| 2026-05-08 17:53 | 44.92439 | -54.07640 | 37706 ft | 436 kts | 241° |
| 2026-05-08 17:54 | 44.90156 | -54.15525 | 37703 ft | 437 kts | 241° |
| 2026-05-08 17:54 | 44.87850 | -54.23462 | 37701 ft | 437 kts | 241° |
| 2026-05-08 17:55 | 44.85538 | -54.31392 | 37696 ft | 437 kts | 241° |
| 2026-05-08 17:55 | 44.83224 | -54.39310 | 37689 ft | 436 kts | 241° |
| 2026-05-08 17:56 | 44.80917 | -54.47173 | 37687 ft | 436 kts | 241° |
| 2026-05-08 17:56 | 44.78597 | -54.55060 | 37681 ft | 436 kts | 241° |
| 2026-05-08 17:57 | 44.76271 | -54.62940 | 37676 ft | 435 kts | 241° |
| 2026-05-08 17:57 | 44.73943 | -54.70802 | 37668 ft | 435 kts | 240° |
| 2026-05-08 17:58 | 44.71613 | -54.78648 | 37667 ft | 435 kts | 240° |
| 2026-05-08 17:58 | 44.69279 | -54.86481 | 37664 ft | 434 kts | 240° |
| 2026-05-08 17:59 | 44.66939 | -54.94311 | 37656 ft | 434 kts | 240° |
| 2026-05-08 17:59 | 44.64614 | -55.02068 | 37655 ft | 434 kts | 240° |
| 2026-05-08 18:00 | 44.62263 | -55.09888 | 37636 ft | 433 kts | 240° |
| 2026-05-08 18:00 | 44.58742 | -55.21551 | 37628 ft | 433 kts | 240° |
| 2026-05-08 18:01 | 44.57576 | -55.25401 | 37836 ft | 432 kts | 240° |
| 2026-05-08 18:01 | 44.56403 | -55.29273 | 38170 ft | 430 kts | 240° |
| 2026-05-08 18:01 | 44.55236 | -55.33122 | 38445 ft | 428 kts | 240° |
| 2026-05-08 18:01 | 44.54070 | -55.36960 | 38642 ft | 427 kts | 240° |
| 2026-05-08 18:02 | 44.52905 | -55.40784 | 38788 ft | 428 kts | 240° |
| 2026-05-08 18:02 | 44.52127 | -55.43332 | 38908 ft | 428 kts | 240° |
| 2026-05-08 18:02 | 44.50559 | -55.48461 | 39124 ft | 428 kts | 240° |
| 2026-05-08 18:02 | 44.49384 | -55.52301 | 39267 ft | 428 kts | 240° |
| 2026-05-08 18:03 | 44.48206 | -55.56144 | 39420 ft | 428 kts | 241° |
| 2026-05-08 18:03 | 44.47033 | -55.59963 | 39558 ft | 429 kts | 241° |
| 2026-05-08 18:03 | 44.44664 | -55.67664 | 39591 ft | 430 kts | 241° |
| 2026-05-08 18:04 | 44.42308 | -55.75305 | 39585 ft | 430 kts | 241° |
| 2026-05-08 18:04 | 44.39939 | -55.82966 | 39579 ft | 429 kts | 241° |
| 2026-05-08 18:05 | 44.37558 | -55.90638 | 39564 ft | 429 kts | 241° |
| 2026-05-08 18:05 | 44.35176 | -55.98292 | 39583 ft | 428 kts | 241° |
| 2026-05-08 18:06 | 44.32796 | -56.05915 | 39571 ft | 427 kts | 241° |
| 2026-05-08 18:06 | 44.30414 | -56.13523 | 39572 ft | 427 kts | 241° |
| 2026-05-08 18:07 | 44.28053 | -56.21045 | 39571 ft | 426 kts | 240° |
| 2026-05-08 18:07 | 44.25672 | -56.28604 | 39568 ft | 425 kts | 240° |
| 2026-05-08 18:08 | 44.23291 | -56.36145 | 39571 ft | 425 kts | 240° |
| 2026-05-08 18:08 | 44.20896 | -56.43705 | 39568 ft | 425 kts | 240° |
| 2026-05-08 18:09 | 44.18497 | -56.51256 | 39570 ft | 425 kts | 240° |
| 2026-05-08 18:09 | 44.16115 | -56.58736 | 39576 ft | 425 kts | 240° |
| 2026-05-08 18:10 | 44.13710 | -56.66261 | 39569 ft | 425 kts | 240° |
| 2026-05-08 18:10 | 44.11303 | -56.73772 | 39575 ft | 425 kts | 240° |
| 2026-05-08 18:11 | 44.08882 | -56.81304 | 39573 ft | 425 kts | 240° |
| 2026-05-08 18:11 | 44.06460 | -56.88819 | 39575 ft | 425 kts | 240° |
| 2026-05-08 18:12 | 44.04036 | -56.96320 | 39574 ft | 425 kts | 240° |
| 2026-05-08 18:12 | 44.01609 | -57.03810 | 39579 ft | 425 kts | 240° |
| 2026-05-08 18:13 | 43.99182 | -57.11280 | 39581 ft | 424 kts | 240° |
| 2026-05-08 18:13 | 43.96762 | -57.18705 | 39580 ft | 424 kts | 240° |
| 2026-05-08 18:14 | 43.94322 | -57.26171 | 39591 ft | 424 kts | 240° |
| 2026-05-08 18:14 | 43.91883 | -57.33615 | 39582 ft | 423 kts | 240° |
| 2026-05-08 18:15 | 43.89444 | -57.41034 | 39589 ft | 423 kts | 240° |
| 2026-05-08 18:15 | 43.86999 | -57.48455 | 39592 ft | 422 kts | 240° |
| 2026-05-08 18:16 | 43.84571 | -57.55801 | 39594 ft | 421 kts | 240° |
| 2026-05-08 18:16 | 43.82127 | -57.63176 | 39599 ft | 420 kts | 240° |
| 2026-05-08 18:17 | 43.79684 | -57.70527 | 39603 ft | 419 kts | 240° |
| 2026-05-08 18:17 | 43.77255 | -57.77816 | 39604 ft | 419 kts | 240° |
| 2026-05-08 18:18 | 43.74797 | -57.85172 | 39609 ft | 418 kts | 239° |
| 2026-05-08 18:18 | 43.72363 | -57.92434 | 39609 ft | 418 kts | 239° |
| 2026-05-08 18:19 | 43.69909 | -57.99739 | 39616 ft | 418 kts | 239° |
| 2026-05-08 18:19 | 43.67456 | -58.07019 | 39622 ft | 418 kts | 239° |
| 2026-05-08 18:20 | 43.64997 | -58.14301 | 39621 ft | 418 kts | 239° |
| 2026-05-08 18:20 | 43.62547 | -58.21533 | 39625 ft | 418 kts | 239° |
| 2026-05-08 18:21 | 43.60074 | -58.28813 | 39630 ft | 419 kts | 239° |
| 2026-05-08 18:21 | 43.57600 | -58.36080 | 39633 ft | 419 kts | 239° |
| 2026-05-08 18:22 | 43.55114 | -58.43363 | 39636 ft | 419 kts | 239° |
| 2026-05-08 18:22 | 43.52620 | -58.50647 | 39642 ft | 420 kts | 239° |
| 2026-05-08 18:23 | 43.50547 | -58.56686 | 39640 ft | 420 kts | 239° |
| 2026-05-08 18:23 | 43.48039 | -58.63976 | 39648 ft | 420 kts | 239° |
| 2026-05-08 18:24 | 43.45530 | -58.71251 | 39652 ft | 421 kts | 239° |
| 2026-05-08 18:24 | 43.43012 | -58.78528 | 39653 ft | 421 kts | 239° |
| 2026-05-08 18:25 | 43.40484 | -58.85818 | 39652 ft | 421 kts | 239° |
| 2026-05-08 18:25 | 43.37955 | -58.93091 | 39661 ft | 422 kts | 239° |
| 2026-05-08 18:26 | 43.35441 | -59.00304 | 39655 ft | 422 kts | 239° |
| 2026-05-08 18:26 | 43.32892 | -59.07595 | 39662 ft | 422 kts | 239° |
| 2026-05-08 18:27 | 43.30775 | -59.13635 | 39665 ft | 422 kts | 239° |
| 2026-05-08 18:27 | 43.27796 | -59.22114 | 39670 ft | 422 kts | 239° |
| 2026-05-08 18:28 | 43.25232 | -59.29393 | 39671 ft | 423 kts | 239° |
| 2026-05-08 18:28 | 43.22664 | -59.36660 | 39677 ft | 423 kts | 239° |
| 2026-05-08 18:29 | 43.20115 | -59.43857 | 39680 ft | 423 kts | 239° |
| 2026-05-08 18:29 | 43.17538 | -59.51112 | 39683 ft | 423 kts | 239° |
| 2026-05-08 18:30 | 43.14958 | -59.58358 | 39684 ft | 423 kts | 239° |
| 2026-05-08 18:30 | 43.12367 | -59.65616 | 39690 ft | 423 kts | 239° |
| 2026-05-08 18:31 | 43.09774 | -59.72861 | 39693 ft | 424 kts | 239° |
| 2026-05-08 18:31 | 43.07176 | -59.80099 | 39693 ft | 424 kts | 239° |
| 2026-05-08 18:32 | 43.04572 | -59.87339 | 39701 ft | 424 kts | 239° |
| 2026-05-08 18:32 | 43.01978 | -59.94530 | 39705 ft | 424 kts | 240° |
| 2026-05-08 18:33 | 42.99145 | -60.01578 | 39705 ft | 422 kts | 234° |
| 2026-05-08 18:33 | 42.95878 | -60.08223 | 39707 ft | 422 kts | 233° |
| 2026-05-08 18:34 | 42.92524 | -60.14829 | 39710 ft | 422 kts | 232° |
| 2026-05-08 18:34 | 42.89168 | -60.21406 | 39716 ft | 423 kts | 233° |
| 2026-05-08 18:35 | 42.85810 | -60.27995 | 39719 ft | 424 kts | 233° |
| 2026-05-08 18:35 | 42.82442 | -60.34602 | 39717 ft | 424 kts | 233° |
| 2026-05-08 18:36 | 42.79076 | -60.41192 | 39720 ft | 425 kts | 233° |
| 2026-05-08 18:36 | 42.75693 | -60.47801 | 39716 ft | 425 kts | 233° |
| 2026-05-08 18:37 | 42.72323 | -60.54369 | 39722 ft | 426 kts | 233° |
| 2026-05-08 18:37 | 42.68929 | -60.60970 | 39726 ft | 426 kts | 233° |
| 2026-05-08 18:38 | 42.65524 | -60.67578 | 39730 ft | 426 kts | 233° |
| 2026-05-08 18:38 | 42.62111 | -60.74186 | 39732 ft | 427 kts | 233° |
| 2026-05-08 18:39 | 42.58692 | -60.80790 | 39735 ft | 427 kts | 233° |
| 2026-05-08 18:39 | 42.55275 | -60.87376 | 39741 ft | 428 kts | 233° |
| 2026-05-08 18:40 | 42.51864 | -60.93936 | 39737 ft | 428 kts | 233° |
| 2026-05-08 18:40 | 42.48430 | -61.00526 | 39742 ft | 428 kts | 233° |
| 2026-05-08 18:41 | 42.44986 | -61.07119 | 39745 ft | 428 kts | 233° |
| 2026-05-08 18:41 | 42.41541 | -61.13702 | 39748 ft | 428 kts | 233° |
| 2026-05-08 18:42 | 42.38079 | -61.20266 | 39751 ft | 428 kts | 232° |
| 2026-05-08 18:42 | 42.34335 | -61.26501 | 39755 ft | 428 kts | 229° |
| 2026-05-08 18:43 | 42.30435 | -61.32590 | 39755 ft | 428 kts | 229° |
| 2026-05-08 18:43 | 42.26537 | -61.38691 | 39759 ft | 428 kts | 229° |
| 2026-05-08 18:44 | 42.22669 | -61.44804 | 39760 ft | 428 kts | 230° |
| 2026-05-08 18:44 | 42.18805 | -61.50929 | 39767 ft | 428 kts | 230° |
| 2026-05-08 18:45 | 42.14939 | -61.57045 | 39770 ft | 428 kts | 230° |
| 2026-05-08 18:45 | 42.11068 | -61.63154 | 39768 ft | 428 kts | 230° |
| 2026-05-08 18:46 | 42.07197 | -61.69249 | 39776 ft | 428 kts | 230° |
| 2026-05-08 18:46 | 42.03347 | -61.75298 | 39778 ft | 428 kts | 230° |
| 2026-05-08 18:47 | 41.99460 | -61.81392 | 39781 ft | 428 kts | 230° |
| 2026-05-08 18:47 | 41.95585 | -61.87454 | 39783 ft | 428 kts | 230° |
| 2026-05-08 18:48 | 41.91722 | -61.93488 | 39786 ft | 428 kts | 230° |
| 2026-05-08 18:48 | 41.87839 | -61.99538 | 39788 ft | 427 kts | 230° |
| 2026-05-08 18:49 | 41.83951 | -62.05585 | 39793 ft | 427 kts | 230° |
| 2026-05-08 18:49 | 41.80065 | -62.11616 | 39793 ft | 427 kts | 230° |
| 2026-05-08 18:50 | 41.76181 | -62.17633 | 39795 ft | 427 kts | 230° |
| 2026-05-08 18:50 | 41.72289 | -62.23648 | 39799 ft | 427 kts | 230° |
| 2026-05-08 18:51 | 41.68417 | -62.29622 | 39805 ft | 427 kts | 230° |
| 2026-05-08 18:51 | 41.64524 | -62.35616 | 39807 ft | 427 kts | 230° |
| 2026-05-08 18:52 | 41.60632 | -62.41596 | 39807 ft | 426 kts | 230° |
| 2026-05-08 18:52 | 41.56729 | -62.47581 | 39814 ft | 426 kts | 230° |
| 2026-05-08 18:53 | 41.52824 | -62.53557 | 39815 ft | 426 kts | 230° |
| 2026-05-08 18:53 | 41.48921 | -62.59518 | 39817 ft | 426 kts | 230° |
| 2026-05-08 18:54 | 41.45039 | -62.65436 | 39821 ft | 426 kts | 230° |
| 2026-05-08 18:54 | 41.41126 | -62.71388 | 39824 ft | 426 kts | 230° |
| 2026-05-08 18:55 | 41.35267 | -62.80280 | 39825 ft | 426 kts | 230° |
| 2026-05-08 18:56 | 41.31349 | -62.86210 | 39827 ft | 426 kts | 230° |
| 2026-05-08 18:56 | 41.27456 | -62.92091 | 39836 ft | 425 kts | 230° |
| 2026-05-08 18:57 | 41.23535 | -62.98003 | 39836 ft | 425 kts | 230° |
| 2026-05-08 18:57 | 41.19621 | -63.03893 | 39838 ft | 425 kts | 230° |
| 2026-05-08 18:58 | 41.15706 | -63.09773 | 39839 ft | 425 kts | 230° |
| 2026-05-08 18:58 | 41.11790 | -63.15643 | 39842 ft | 425 kts | 230° |
| 2026-05-08 18:59 | 41.07886 | -63.21484 | 39845 ft | 425 kts | 230° |
| 2026-05-08 18:59 | 41.03964 | -63.27339 | 39849 ft | 425 kts | 230° |
| 2026-05-08 19:00 | 41.00699 | -63.32206 | 39852 ft | 425 kts | 230° |
| 2026-05-08 19:00 | 40.96106 | -63.39038 | 39854 ft | 425 kts | 230° |
| 2026-05-08 19:01 | 40.92171 | -63.44879 | 39856 ft | 424 kts | 230° |
| 2026-05-08 19:01 | 40.88244 | -63.50697 | 39861 ft | 424 kts | 230° |
| 2026-05-08 19:02 | 40.84318 | -63.56502 | 39866 ft | 424 kts | 230° |
| 2026-05-08 19:02 | 40.80386 | -63.62306 | 39870 ft | 424 kts | 230° |
| 2026-05-08 19:03 | 40.76466 | -63.68081 | 39866 ft | 424 kts | 230° |
| 2026-05-08 19:03 | 40.72524 | -63.73875 | 39869 ft | 424 kts | 231° |
| 2026-05-08 19:04 | 40.68585 | -63.79655 | 39873 ft | 424 kts | 231° |
| 2026-05-08 19:04 | 40.64637 | -63.85438 | 39876 ft | 424 kts | 231° |
| 2026-05-08 19:05 | 40.60696 | -63.91198 | 39878 ft | 423 kts | 231° |
| 2026-05-08 19:05 | 40.56751 | -63.96954 | 39884 ft | 423 kts | 231° |
| 2026-05-08 19:06 | 40.52799 | -64.02709 | 39885 ft | 423 kts | 231° |
| 2026-05-08 19:06 | 40.48881 | -64.08405 | 39888 ft | 423 kts | 231° |
| 2026-05-08 19:07 | 40.44934 | -64.14130 | 39889 ft | 423 kts | 231° |
| 2026-05-08 19:07 | 40.40976 | -64.19862 | 39890 ft | 423 kts | 231° |
| 2026-05-08 19:08 | 40.37022 | -64.25576 | 39893 ft | 423 kts | 231° |
| 2026-05-08 19:08 | 40.33068 | -64.31280 | 39896 ft | 422 kts | 231° |
| 2026-05-08 19:09 | 40.29778 | -64.36017 | 39910 ft | 422 kts | 231° |
| 2026-05-08 19:09 | 40.25818 | -64.41711 | 39914 ft | 422 kts | 231° |
| 2026-05-08 19:10 | 40.21859 | -64.47391 | 39895 ft | 422 kts | 231° |
| 2026-05-08 19:10 | 40.17912 | -64.53044 | 39912 ft | 422 kts | 231° |
| 2026-05-08 19:11 | 40.13949 | -64.58710 | 39907 ft | 422 kts | 231° |
| 2026-05-08 19:11 | 40.09975 | -64.64380 | 39910 ft | 422 kts | 231° |
| 2026-05-08 19:12 | 40.06009 | -64.70028 | 39912 ft | 422 kts | 231° |
| 2026-05-08 19:12 | 40.02032 | -64.75683 | 39909 ft | 422 kts | 231° |
| 2026-05-08 19:13 | 39.98088 | -64.81279 | 39919 ft | 422 kts | 231° |
| 2026-05-08 19:13 | 39.94110 | -64.86913 | 39916 ft | 422 kts | 231° |
| 2026-05-08 19:14 | 39.90130 | -64.92539 | 39910 ft | 422 kts | 231° |
| 2026-05-08 19:14 | 39.86152 | -64.98153 | 39921 ft | 422 kts | 231° |
| 2026-05-08 19:15 | 39.82169 | -65.03763 | 39919 ft | 421 kts | 231° |
| 2026-05-08 19:15 | 39.78210 | -65.09330 | 39920 ft | 421 kts | 231° |
| 2026-05-08 19:16 | 39.74231 | -65.14914 | 39924 ft | 421 kts | 231° |
| 2026-05-08 19:16 | 39.70251 | -65.20490 | 39925 ft | 421 kts | 231° |
| 2026-05-08 19:17 | 39.66252 | -65.26081 | 39926 ft | 421 kts | 231° |
| 2026-05-08 19:17 | 39.62263 | -65.31649 | 39928 ft | 421 kts | 231° |
| 2026-05-08 19:18 | 39.58292 | -65.37181 | 39932 ft | 421 kts | 231° |
| 2026-05-08 19:18 | 39.54299 | -65.42734 | 39926 ft | 421 kts | 231° |
| 2026-05-08 19:19 | 39.50305 | -65.48279 | 39929 ft | 421 kts | 231° |
| 2026-05-08 19:19 | 39.46304 | -65.53823 | 39932 ft | 421 kts | 231° |
| 2026-05-08 19:20 | 39.42328 | -65.59322 | 39932 ft | 421 kts | 231° |
| 2026-05-08 19:20 | 39.38330 | -65.64842 | 39935 ft | 420 kts | 231° |
| 2026-05-08 19:21 | 39.34331 | -65.70354 | 39934 ft | 420 kts | 231° |
| 2026-05-08 19:21 | 39.30325 | -65.75865 | 39934 ft | 420 kts | 231° |
| 2026-05-08 19:22 | 39.26326 | -65.81356 | 39938 ft | 420 kts | 231° |
| 2026-05-08 19:22 | 39.22314 | -65.86856 | 39934 ft | 420 kts | 231° |
| 2026-05-08 19:23 | 39.18323 | -65.92318 | 39936 ft | 420 kts | 231° |
| 2026-05-08 19:23 | 39.14315 | -65.97793 | 39932 ft | 420 kts | 231° |
| 2026-05-08 19:24 | 39.10308 | -66.03257 | 39943 ft | 420 kts | 232° |
| 2026-05-08 19:24 | 39.06293 | -66.08721 | 39945 ft | 420 kts | 232° |
| 2026-05-08 19:25 | 39.02279 | -66.14175 | 39944 ft | 420 kts | 232° |
| 2026-05-08 19:25 | 38.98279 | -66.19601 | 39942 ft | 419 kts | 232° |
| 2026-05-08 19:26 | 38.94257 | -66.25046 | 39942 ft | 419 kts | 232° |
| 2026-05-08 19:26 | 38.90230 | -66.30488 | 39945 ft | 419 kts | 232° |
| 2026-05-08 19:27 | 38.86213 | -66.35909 | 39945 ft | 419 kts | 232° |
| 2026-05-08 19:27 | 38.82204 | -66.41307 | 39945 ft | 419 kts | 232° |
| 2026-05-08 19:28 | 38.78176 | -66.46723 | 39948 ft | 419 kts | 232° |
| 2026-05-08 19:28 | 38.74142 | -66.52137 | 39952 ft | 419 kts | 232° |
| 2026-05-08 19:29 | 38.70109 | -66.57540 | 39953 ft | 419 kts | 232° |
| 2026-05-08 19:29 | 38.66074 | -66.62937 | 39954 ft | 419 kts | 232° |
| 2026-05-08 19:30 | 38.61675 | -66.67914 | 39953 ft | 428 kts | 222° |
| 2026-05-08 19:30 | 38.56727 | -66.72110 | 39956 ft | 430 kts | 220° |
| 2026-05-08 19:31 | 38.51662 | -66.76187 | 39955 ft | 430 kts | 220° |
| 2026-05-08 19:31 | 38.46587 | -66.80255 | 39957 ft | 430 kts | 220° |
| 2026-05-08 19:32 | 38.41539 | -66.84322 | 39959 ft | 429 kts | 220° |
| 2026-05-08 19:32 | 38.36527 | -66.88368 | 39958 ft | 428 kts | 220° |
| 2026-05-08 19:33 | 38.31499 | -66.92422 | 39962 ft | 428 kts | 220° |
| 2026-05-08 19:33 | 38.26457 | -66.96480 | 39966 ft | 428 kts | 220° |
| 2026-05-08 19:34 | 38.21416 | -67.00530 | 39966 ft | 428 kts | 220° |
| 2026-05-08 19:34 | 38.16385 | -67.04565 | 39973 ft | 427 kts | 220° |
| 2026-05-08 19:35 | 38.11379 | -67.08572 | 39974 ft | 427 kts | 220° |
| 2026-05-08 19:35 | 38.06343 | -67.12597 | 39975 ft | 427 kts | 220° |
| 2026-05-08 19:36 | 38.01314 | -67.16610 | 39967 ft | 427 kts | 220° |
| 2026-05-08 19:36 | 37.96296 | -67.20608 | 39971 ft | 426 kts | 221° |
| 2026-05-08 19:37 | 37.91268 | -67.24607 | 39976 ft | 426 kts | 221° |
| 2026-05-08 19:37 | 37.86270 | -67.28576 | 39979 ft | 426 kts | 221° |
| 2026-05-08 19:38 | 37.81256 | -67.32552 | 39976 ft | 425 kts | 221° |
| 2026-05-08 19:38 | 37.76242 | -67.36521 | 39984 ft | 425 kts | 221° |
| 2026-05-08 19:39 | 37.71216 | -67.40492 | 39982 ft | 425 kts | 221° |
| 2026-05-08 19:39 | 37.66201 | -67.44447 | 39982 ft | 425 kts | 221° |
| 2026-05-08 19:40 | 37.61180 | -67.48402 | 39982 ft | 425 kts | 221° |
| 2026-05-08 19:40 | 37.56192 | -67.52325 | 39986 ft | 425 kts | 221° |
| 2026-05-08 19:41 | 37.51177 | -67.56263 | 39985 ft | 425 kts | 221° |
| 2026-05-08 19:41 | 37.46159 | -67.60197 | 39984 ft | 424 kts | 221° |
| 2026-05-08 19:42 | 37.41144 | -67.64122 | 39989 ft | 424 kts | 221° |
| 2026-05-08 19:42 | 37.36119 | -67.68048 | 39982 ft | 424 kts | 221° |
| 2026-05-08 19:43 | 37.31131 | -67.71939 | 39989 ft | 424 kts | 221° |
| 2026-05-08 19:43 | 37.26113 | -67.75847 | 39991 ft | 424 kts | 221° |
| 2026-05-08 19:44 | 37.21092 | -67.79752 | 39993 ft | 424 kts | 221° |
| 2026-05-08 19:44 | 37.16074 | -67.83649 | 39992 ft | 424 kts | 221° |
| 2026-05-08 19:45 | 37.11048 | -67.87545 | 39995 ft | 424 kts | 221° |
| 2026-05-08 19:45 | 37.06073 | -67.91396 | 39998 ft | 424 kts | 221° |
| 2026-05-08 19:46 | 37.01046 | -67.95280 | 39997 ft | 424 kts | 221° |
| 2026-05-08 19:46 | 36.93515 | -68.01088 | 39995 ft | 424 kts | 221° |
| 2026-05-08 19:47 | 36.88484 | -68.04962 | 40001 ft | 424 kts | 221° |
| 2026-05-08 19:47 | 36.83463 | -68.08820 | 39998 ft | 424 kts | 221° |
| 2026-05-08 19:48 | 36.78471 | -68.12650 | 39999 ft | 423 kts | 221° |
| 2026-05-08 19:48 | 36.73444 | -68.16501 | 40003 ft | 423 kts | 221° |
| 2026-05-08 19:49 | 36.68431 | -68.20336 | 40002 ft | 423 kts | 221° |
| 2026-05-08 19:49 | 36.63401 | -68.24178 | 40014 ft | 423 kts | 221° |
| 2026-05-08 19:50 | 36.58432 | -68.28078 | 40006 ft | 417 kts | 226° |
| 2026-05-08 19:50 | 36.54128 | -68.32703 | 40006 ft | 408 kts | 232° |
| 2026-05-08 19:51 | 36.50053 | -68.37620 | 40001 ft | 407 kts | 233° |
| 2026-05-08 19:51 | 36.46020 | -68.42562 | 40006 ft | 407 kts | 233° |
| 2026-05-08 19:52 | 36.41996 | -68.47465 | 40011 ft | 407 kts | 233° |
| 2026-05-08 19:52 | 36.37942 | -68.52375 | 40009 ft | 407 kts | 233° |
| 2026-05-08 19:53 | 36.33886 | -68.57273 | 40011 ft | 407 kts | 233° |
| 2026-05-08 19:53 | 36.29828 | -68.62166 | 40014 ft | 406 kts | 233° |
| 2026-05-08 19:54 | 36.25766 | -68.67057 | 40009 ft | 406 kts | 233° |
| 2026-05-08 19:54 | 36.21731 | -68.71908 | 40013 ft | 406 kts | 233° |
| 2026-05-08 19:55 | 36.17669 | -68.76786 | 40013 ft | 406 kts | 233° |
| 2026-05-08 19:55 | 36.13616 | -68.81645 | 40012 ft | 406 kts | 233° |
| 2026-05-08 19:56 | 36.09551 | -68.86510 | 40006 ft | 406 kts | 233° |
| 2026-05-08 19:56 | 36.05512 | -68.91337 | 40015 ft | 406 kts | 233° |
| 2026-05-08 19:57 | 36.01453 | -68.96181 | 40015 ft | 406 kts | 233° |
| 2026-05-08 19:57 | 35.97387 | -69.01026 | 40016 ft | 405 kts | 233° |
| 2026-05-08 19:58 | 35.94010 | -69.05045 | 40016 ft | 405 kts | 233° |
| 2026-05-08 19:58 | 35.89950 | -69.09870 | 40016 ft | 405 kts | 233° |
| 2026-05-08 19:59 | 35.85885 | -69.14693 | 40018 ft | 405 kts | 233° |
| 2026-05-08 19:59 | 35.81811 | -69.19520 | 40015 ft | 405 kts | 233° |
| 2026-05-08 20:00 | 35.77737 | -69.24337 | 40016 ft | 405 kts | 233° |
| 2026-05-08 20:00 | 35.73674 | -69.29135 | 40015 ft | 405 kts | 233° |
| 2026-05-08 20:01 | 35.69625 | -69.33910 | 40021 ft | 405 kts | 233° |
| 2026-05-08 20:01 | 35.65549 | -69.38710 | 40023 ft | 405 kts | 233° |
| 2026-05-08 20:02 | 35.61477 | -69.43498 | 40023 ft | 405 kts | 233° |
| 2026-05-08 20:02 | 35.57394 | -69.48294 | 40026 ft | 405 kts | 233° |
| 2026-05-08 20:03 | 35.53316 | -69.53075 | 40026 ft | 405 kts | 233° |
| 2026-05-08 20:03 | 35.49231 | -69.57857 | 40028 ft | 405 kts | 234° |
| 2026-05-08 20:04 | 35.45148 | -69.62629 | 40031 ft | 405 kts | 234° |
| 2026-05-08 20:04 | 35.41066 | -69.67394 | 40030 ft | 406 kts | 234° |
| 2026-05-08 20:05 | 35.36999 | -69.72135 | 40026 ft | 406 kts | 234° |
| 2026-05-08 20:05 | 35.32905 | -69.76898 | 40030 ft | 406 kts | 234° |
| 2026-05-08 20:06 | 35.28800 | -69.81669 | 40029 ft | 406 kts | 234° |
| 2026-05-08 20:06 | 35.24722 | -69.86401 | 40028 ft | 406 kts | 234° |
| 2026-05-08 20:07 | 35.20594 | -69.91184 | 40037 ft | 407 kts | 234° |
| 2026-05-08 20:07 | 35.16510 | -69.95910 | 40036 ft | 407 kts | 234° |
| 2026-05-08 20:08 | 35.12386 | -70.00674 | 40033 ft | 407 kts | 234° |
| 2026-05-08 20:08 | 35.08266 | -70.05427 | 40033 ft | 407 kts | 234° |
| 2026-05-08 20:09 | 35.04134 | -70.10187 | 40035 ft | 408 kts | 234° |
| 2026-05-08 20:09 | 35.00008 | -70.14933 | 40033 ft | 408 kts | 234° |
| 2026-05-08 20:10 | 34.95875 | -70.19680 | 40035 ft | 408 kts | 234° |
| 2026-05-08 20:10 | 34.91731 | -70.24433 | 40035 ft | 409 kts | 234° |
| 2026-05-08 20:11 | 34.87585 | -70.29180 | 40034 ft | 409 kts | 234° |
| 2026-05-08 20:11 | 34.83453 | -70.33905 | 40035 ft | 410 kts | 234° |
| 2026-05-08 20:12 | 34.79293 | -70.38656 | 40033 ft | 410 kts | 234° |
| 2026-05-08 20:12 | 34.75121 | -70.43414 | 40031 ft | 410 kts | 234° |
| 2026-05-08 20:13 | 34.70939 | -70.48175 | 40043 ft | 411 kts | 234° |
| 2026-05-08 20:13 | 34.66794 | -70.52888 | 40032 ft | 411 kts | 234° |
| 2026-05-08 20:14 | 34.62606 | -70.57642 | 40031 ft | 412 kts | 234° |
| 2026-05-08 20:14 | 34.58414 | -70.62395 | 40032 ft | 412 kts | 234° |
| 2026-05-08 20:15 | 34.54224 | -70.67138 | 40032 ft | 412 kts | 234° |
| 2026-05-08 20:15 | 34.50022 | -70.71887 | 40031 ft | 413 kts | 234° |
| 2026-05-08 20:16 | 34.45841 | -70.76607 | 40032 ft | 413 kts | 234° |
| 2026-05-08 20:16 | 34.41625 | -70.81359 | 40035 ft | 413 kts | 234° |
| 2026-05-08 20:17 | 34.37412 | -70.86101 | 40035 ft | 413 kts | 234° |
| 2026-05-08 20:17 | 34.33198 | -70.90837 | 40036 ft | 414 kts | 234° |
| 2026-05-08 20:18 | 34.28994 | -70.95555 | 40037 ft | 414 kts | 234° |
| 2026-05-08 20:18 | 34.24777 | -71.00281 | 40030 ft | 414 kts | 234° |
| 2026-05-08 20:19 | 34.20546 | -71.05015 | 40034 ft | 414 kts | 234° |
| 2026-05-08 20:19 | 34.16310 | -71.09749 | 40032 ft | 414 kts | 234° |
| 2026-05-08 20:20 | 34.12077 | -71.14473 | 40036 ft | 414 kts | 234° |
| 2026-05-08 20:20 | 34.07844 | -71.19191 | 40030 ft | 414 kts | 234° |
| 2026-05-08 20:21 | 34.03636 | -71.23875 | 40031 ft | 414 kts | 234° |
| 2026-05-08 20:21 | 33.99393 | -71.28589 | 40030 ft | 414 kts | 234° |
| 2026-05-08 20:22 | 33.95153 | -71.33291 | 40035 ft | 414 kts | 234° |
| 2026-05-08 20:22 | 33.91628 | -71.37195 | 40033 ft | 414 kts | 234° |
| 2026-05-08 20:23 | 33.86655 | -71.42696 | 40022 ft | 414 kts | 234° |
| 2026-05-08 20:23 | 33.82438 | -71.47357 | 40037 ft | 414 kts | 234° |
| 2026-05-08 20:24 | 33.78188 | -71.52047 | 40036 ft | 414 kts | 234° |
| 2026-05-08 20:24 | 33.73925 | -71.56743 | 40030 ft | 414 kts | 234° |
| 2026-05-08 20:25 | 33.69705 | -71.61387 | 40034 ft | 414 kts | 234° |
| 2026-05-08 20:25 | 33.65451 | -71.66062 | 40027 ft | 415 kts | 234° |
| 2026-05-08 20:26 | 33.61186 | -71.70742 | 40037 ft | 415 kts | 234° |
| 2026-05-08 20:26 | 33.56915 | -71.75420 | 40032 ft | 415 kts | 234° |
| 2026-05-08 20:27 | 33.52649 | -71.80088 | 40029 ft | 415 kts | 234° |
| 2026-05-08 20:27 | 33.48404 | -71.84726 | 40027 ft | 416 kts | 234° |
| 2026-05-08 20:28 | 33.44123 | -71.89396 | 40031 ft | 416 kts | 234° |
| 2026-05-08 20:28 | 33.39845 | -71.94057 | 40030 ft | 416 kts | 234° |
| 2026-05-08 20:29 | 33.35546 | -71.98733 | 40030 ft | 416 kts | 234° |
| 2026-05-08 20:29 | 33.31259 | -72.03391 | 40024 ft | 417 kts | 234° |
| 2026-05-08 20:30 | 33.26963 | -72.08052 | 40035 ft | 417 kts | 234° |
| 2026-05-08 20:30 | 33.22693 | -72.12679 | 40029 ft | 417 kts | 234° |
| 2026-05-08 20:31 | 33.18357 | -72.17370 | 40028 ft | 417 kts | 234° |
| 2026-05-08 20:31 | 33.14080 | -72.21991 | 40026 ft | 418 kts | 234° |
| 2026-05-08 20:32 | 33.09769 | -72.26643 | 40028 ft | 418 kts | 234° |
| 2026-05-08 20:32 | 33.05445 | -72.31302 | 40026 ft | 419 kts | 234° |
| 2026-05-08 20:33 | 33.01109 | -72.35967 | 40025 ft | 419 kts | 234° |
| 2026-05-08 20:33 | 32.96783 | -72.40616 | 40022 ft | 419 kts | 234° |
| 2026-05-08 20:34 | 32.92437 | -72.45279 | 40026 ft | 420 kts | 234° |
| 2026-05-08 20:35 | 32.85959 | -72.52217 | 40024 ft | 420 kts | 234° |
| 2026-05-08 20:35 | 32.81603 | -72.56875 | 40020 ft | 420 kts | 234° |
| 2026-05-08 20:36 | 32.77260 | -72.61513 | 40022 ft | 420 kts | 234° |
| 2026-05-08 20:36 | 32.72900 | -72.66163 | 40020 ft | 421 kts | 234° |
| 2026-05-08 20:37 | 32.68538 | -72.70808 | 40022 ft | 421 kts | 234° |
| 2026-05-08 20:37 | 32.64199 | -72.75423 | 40018 ft | 421 kts | 234° |
| 2026-05-08 20:38 | 32.59836 | -72.80056 | 40019 ft | 421 kts | 234° |
| 2026-05-08 20:38 | 32.55464 | -72.84693 | 40021 ft | 422 kts | 234° |
| 2026-05-08 20:39 | 32.51086 | -72.89330 | 40021 ft | 422 kts | 234° |
| 2026-05-08 20:39 | 32.46701 | -72.93968 | 40019 ft | 422 kts | 234° |
| 2026-05-08 20:40 | 32.42319 | -72.98596 | 40018 ft | 422 kts | 234° |
| 2026-05-08 20:40 | 32.37932 | -73.03224 | 40026 ft | 422 kts | 234° |
| 2026-05-08 20:41 | 32.33539 | -73.07852 | 40019 ft | 423 kts | 234° |
| 2026-05-08 20:41 | 32.29555 | -73.12736 | 40016 ft | 410 kts | 241° |
| 2026-05-08 20:42 | 32.25933 | -73.17926 | 40013 ft | 409 kts | 242° |
| 2026-05-08 20:42 | 32.22366 | -73.23155 | 40009 ft | 409 kts | 242° |
| 2026-05-08 20:43 | 32.18792 | -73.28386 | 40010 ft | 409 kts | 242° |
| 2026-05-08 20:43 | 32.15211 | -73.33600 | 40012 ft | 409 kts | 242° |
| 2026-05-08 20:44 | 32.11619 | -73.38813 | 40011 ft | 409 kts | 242° |
| 2026-05-08 20:44 | 32.08628 | -73.43147 | 40011 ft | 409 kts | 242° |
| 2026-05-08 20:45 | 32.04442 | -73.49204 | 40009 ft | 409 kts | 242° |
| 2026-05-08 20:45 | 32.01424 | -73.53566 | 40009 ft | 409 kts | 242° |
| 2026-05-08 20:46 | 31.97841 | -73.58737 | 40006 ft | 410 kts | 242° |
| 2026-05-08 20:46 | 31.94214 | -73.63966 | 40008 ft | 410 kts | 242° |
| 2026-05-08 20:47 | 31.90627 | -73.69130 | 40011 ft | 410 kts | 241° |
| 2026-05-08 20:47 | 31.87011 | -73.74328 | 40010 ft | 410 kts | 241° |
| 2026-05-08 20:48 | 31.83394 | -73.79521 | 40007 ft | 410 kts | 241° |
| 2026-05-08 20:48 | 31.79776 | -73.84710 | 40005 ft | 410 kts | 241° |
| 2026-05-08 20:49 | 31.76173 | -73.89868 | 40008 ft | 411 kts | 241° |
| 2026-05-08 20:49 | 31.72545 | -73.95055 | 40006 ft | 411 kts | 241° |
| 2026-05-08 20:50 | 31.68914 | -74.00239 | 40006 ft | 411 kts | 241° |
| 2026-05-08 20:50 | 31.65267 | -74.05439 | 40006 ft | 412 kts | 241° |
| 2026-05-08 20:51 | 31.61614 | -74.10640 | 40019 ft | 412 kts | 240° |
| 2026-05-08 20:51 | 31.57957 | -74.15840 | 40009 ft | 413 kts | 240° |
| 2026-05-08 20:52 | 31.54317 | -74.21008 | 40005 ft | 414 kts | 240° |
| 2026-05-08 20:52 | 31.50645 | -74.26216 | 40006 ft | 414 kts | 240° |
| 2026-05-08 20:53 | 31.46970 | -74.31420 | 40007 ft | 415 kts | 240° |
| 2026-05-08 20:53 | 31.43286 | -74.36629 | 40006 ft | 415 kts | 240° |
| 2026-05-08 20:54 | 31.39598 | -74.41836 | 40007 ft | 415 kts | 240° |
| 2026-05-08 20:54 | 31.35905 | -74.47045 | 40005 ft | 415 kts | 240° |
| 2026-05-08 20:55 | 31.32206 | -74.52254 | 40004 ft | 416 kts | 240° |
| 2026-05-08 20:55 | 31.28531 | -74.57422 | 40003 ft | 416 kts | 240° |
| 2026-05-08 20:56 | 31.24829 | -74.62623 | 40003 ft | 416 kts | 240° |
| 2026-05-08 20:56 | 31.21124 | -74.67820 | 39999 ft | 416 kts | 240° |
| 2026-05-08 20:57 | 31.17409 | -74.73025 | 40003 ft | 416 kts | 240° |
| 2026-05-08 20:57 | 31.13697 | -74.78218 | 40003 ft | 417 kts | 239° |
| 2026-05-08 20:58 | 31.09978 | -74.83412 | 40003 ft | 417 kts | 239° |
| 2026-05-08 20:58 | 31.06262 | -74.88598 | 40001 ft | 417 kts | 239° |
| 2026-05-08 20:59 | 31.02523 | -74.93807 | 39999 ft | 417 kts | 239° |
| 2026-05-08 20:59 | 30.98814 | -74.98967 | 40001 ft | 418 kts | 239° |
| 2026-05-08 21:00 | 30.95078 | -75.04159 | 40000 ft | 418 kts | 239° |
| 2026-05-08 21:00 | 30.91339 | -75.09347 | 39997 ft | 418 kts | 239° |
| 2026-05-08 21:01 | 30.87587 | -75.14548 | 40001 ft | 418 kts | 239° |
| 2026-05-08 21:01 | 30.83865 | -75.19700 | 40003 ft | 419 kts | 239° |
| 2026-05-08 21:02 | 30.80106 | -75.24895 | 40004 ft | 419 kts | 239° |
| 2026-05-08 21:02 | 30.76352 | -75.30077 | 40003 ft | 419 kts | 239° |
| 2026-05-08 21:03 | 30.72587 | -75.35267 | 40001 ft | 419 kts | 239° |
| 2026-05-08 21:03 | 30.68825 | -75.40447 | 40001 ft | 419 kts | 238° |
| 2026-05-08 21:04 | 30.65064 | -75.45617 | 39999 ft | 420 kts | 238° |
| 2026-05-08 21:04 | 30.61310 | -75.50772 | 40000 ft | 420 kts | 238° |
| 2026-05-08 21:05 | 30.57539 | -75.55942 | 40001 ft | 420 kts | 238° |
| 2026-05-08 21:05 | 30.53754 | -75.61126 | 40002 ft | 420 kts | 238° |
| 2026-05-08 21:06 | 30.49969 | -75.66302 | 40000 ft | 421 kts | 238° |
| 2026-05-08 21:06 | 30.46188 | -75.71466 | 40000 ft | 421 kts | 238° |
| 2026-05-08 21:07 | 30.42388 | -75.76651 | 40000 ft | 421 kts | 238° |
| 2026-05-08 21:07 | 30.38585 | -75.81831 | 39994 ft | 422 kts | 238° |
| 2026-05-08 21:08 | 30.34781 | -75.87005 | 39991 ft | 422 kts | 238° |
| 2026-05-08 21:08 | 30.30995 | -75.92150 | 40002 ft | 422 kts | 238° |
| 2026-05-08 21:09 | 30.27175 | -75.97333 | 40001 ft | 423 kts | 237° |
| 2026-05-08 21:09 | 30.23355 | -76.02509 | 39999 ft | 423 kts | 237° |
| 2026-05-08 21:10 | 30.19521 | -76.07697 | 40001 ft | 423 kts | 237° |
| 2026-05-08 21:10 | 30.15694 | -76.12871 | 40001 ft | 424 kts | 237° |
| 2026-05-08 21:11 | 30.11852 | -76.18057 | 40000 ft | 424 kts | 237° |
| 2026-05-08 21:11 | 30.08016 | -76.23227 | 40004 ft | 425 kts | 237° |
| 2026-05-08 21:12 | 30.04191 | -76.28376 | 40003 ft | 425 kts | 237° |
| 2026-05-08 21:12 | 30.00325 | -76.33574 | 40003 ft | 425 kts | 237° |
| 2026-05-08 21:13 | 29.96473 | -76.38746 | 40001 ft | 426 kts | 237° |
| 2026-05-08 21:13 | 29.92595 | -76.43947 | 40000 ft | 426 kts | 237° |
| 2026-05-08 21:14 | 29.88754 | -76.49091 | 39999 ft | 427 kts | 237° |
| 2026-05-08 21:14 | 29.84876 | -76.54279 | 40002 ft | 427 kts | 237° |
| 2026-05-08 21:15 | 29.80993 | -76.59466 | 40001 ft | 427 kts | 237° |
| 2026-05-08 21:15 | 29.77104 | -76.64654 | 39999 ft | 428 kts | 237° |
| 2026-05-08 21:16 | 29.73202 | -76.69852 | 40001 ft | 428 kts | 237° |
| 2026-05-08 21:16 | 29.69324 | -76.75012 | 39995 ft | 429 kts | 237° |
| 2026-05-08 21:17 | 29.65399 | -76.80231 | 39997 ft | 429 kts | 237° |
| 2026-05-08 21:17 | 29.62093 | -76.85762 | 40002 ft | 417 kts | 249° |
| 2026-05-08 21:18 | 29.60151 | -76.91933 | 40006 ft | 408 kts | 262° |
| 2026-05-08 21:18 | 29.59264 | -76.98379 | 39996 ft | 407 kts | 265° |
| 2026-05-08 21:19 | 29.58543 | -77.04834 | 39999 ft | 407 kts | 265° |
| 2026-05-08 21:19 | 29.57818 | -77.11293 | 40009 ft | 407 kts | 265° |
| 2026-05-08 21:20 | 29.57071 | -77.17709 | 39999 ft | 407 kts | 265° |
| 2026-05-08 21:20 | 29.56304 | -77.24176 | 40006 ft | 408 kts | 265° |
| 2026-05-08 21:21 | 29.55533 | -77.30634 | 39997 ft | 408 kts | 265° |
| 2026-05-08 21:21 | 29.54761 | -77.37080 | 40001 ft | 408 kts | 265° |
| 2026-05-08 21:22 | 29.53983 | -77.43552 | 39999 ft | 408 kts | 265° |
| 2026-05-08 21:22 | 29.53206 | -77.49988 | 40006 ft | 408 kts | 264° |
| 2026-05-08 21:23 | 29.52428 | -77.56414 | 39996 ft | 408 kts | 264° |
| 2026-05-08 21:23 | 29.51643 | -77.62863 | 40004 ft | 408 kts | 264° |
| 2026-05-08 21:24 | 29.50853 | -77.69332 | 40005 ft | 408 kts | 264° |
| 2026-05-08 21:24 | 29.50063 | -77.75775 | 39997 ft | 408 kts | 264° |
| 2026-05-08 21:25 | 29.49337 | -77.81671 | 40008 ft | 408 kts | 264° |
| 2026-05-08 21:25 | 29.48538 | -77.88130 | 40001 ft | 408 kts | 264° |
| 2026-05-08 21:26 | 29.47744 | -77.94532 | 40002 ft | 408 kts | 264° |
| 2026-05-08 21:26 | 29.46939 | -78.00991 | 39996 ft | 408 kts | 264° |
| 2026-05-08 21:27 | 29.46132 | -78.07438 | 39999 ft | 408 kts | 264° |
| 2026-05-08 21:27 | 29.45326 | -78.13853 | 40003 ft | 408 kts | 264° |
| 2026-05-08 21:28 | 29.44514 | -78.20293 | 40010 ft | 408 kts | 264° |
| 2026-05-08 21:28 | 29.43703 | -78.26695 | 40010 ft | 408 kts | 264° |
| 2026-05-08 21:29 | 29.42883 | -78.33147 | 40005 ft | 408 kts | 264° |
| 2026-05-08 21:29 | 29.42057 | -78.39624 | 40005 ft | 408 kts | 264° |
| 2026-05-08 21:30 | 29.41371 | -78.44975 | 40005 ft | 408 kts | 264° |
| 2026-05-08 21:30 | 29.40407 | -78.52467 | 40004 ft | 408 kts | 263° |
| 2026-05-08 21:31 | 29.39316 | -78.57756 | 40012 ft | 411 kts | 256° |
| 2026-05-08 21:31 | 29.37227 | -78.65006 | 39999 ft | 412 kts | 255° |
| 2026-05-08 21:32 | 29.35644 | -78.70227 | 40013 ft | 413 kts | 255° |
| 2026-05-08 21:32 | 29.33743 | -78.76430 | 40004 ft | 413 kts | 255° |
| 2026-05-08 21:33 | 29.31852 | -78.82611 | 39997 ft | 413 kts | 255° |
| 2026-05-08 21:33 | 29.29958 | -78.88821 | 40008 ft | 413 kts | 255° |
| 2026-05-08 21:34 | 29.28071 | -78.95039 | 39995 ft | 413 kts | 255° |
| 2026-05-08 21:34 | 29.26194 | -79.01257 | 39959 ft | 413 kts | 255° |
| 2026-05-08 21:34 | 29.25255 | -79.04366 | 39746 ft | 413 kts | 255° |
| 2026-05-08 21:35 | 29.24315 | -79.07477 | 39522 ft | 413 kts | 255° |
| 2026-05-08 21:35 | 29.23400 | -79.10569 | 39250 ft | 405 kts | 256° |
| 2026-05-08 21:35 | 29.22564 | -79.13624 | 38880 ft | 401 kts | 257° |
| 2026-05-08 21:35 | 29.21727 | -79.16661 | 38368 ft | 400 kts | 255° |
| 2026-05-08 21:36 | 29.20830 | -79.19668 | 37881 ft | 397 kts | 255° |
| 2026-05-08 21:36 | 29.19905 | -79.22631 | 37422 ft | 394 kts | 254° |
| 2026-05-08 21:36 | 29.18965 | -79.25575 | 36963 ft | 392 kts | 253° |
| 2026-05-08 21:36 | 29.18037 | -79.28466 | 36498 ft | 392 kts | 253° |
| 2026-05-08 21:37 | 29.17100 | -79.31402 | 36024 ft | 394 kts | 254° |
| 2026-05-08 21:37 | 29.16181 | -79.34402 | 35528 ft | 396 kts | 254° |
| 2026-05-08 21:37 | 29.15291 | -79.37347 | 35029 ft | 398 kts | 254° |
| 2026-05-08 21:37 | 29.14380 | -79.40364 | 34465 ft | 401 kts | 253° |
| 2026-05-08 21:38 | 29.13465 | -79.43394 | 33866 ft | 403 kts | 253° |
| 2026-05-08 21:38 | 29.12548 | -79.46427 | 33216 ft | 405 kts | 253° |
| 2026-05-08 21:38 | 29.11625 | -79.49480 | 32603 ft | 407 kts | 253° |
| 2026-05-08 21:38 | 29.10693 | -79.52556 | 31966 ft | 410 kts | 253° |
| 2026-05-08 21:39 | 29.09753 | -79.55655 | 31325 ft | 413 kts | 253° |
| 2026-05-08 21:39 | 29.08821 | -79.58733 | 30668 ft | 416 kts | 252° |
| 2026-05-08 21:39 | 29.07869 | -79.61874 | 29953 ft | 419 kts | 252° |
| 2026-05-08 21:39 | 29.06917 | -79.65014 | 29142 ft | 421 kts | 252° |
| 2026-05-08 21:40 | 29.05951 | -79.68192 | 28510 ft | 418 kts | 252° |
| 2026-05-08 21:40 | 29.05003 | -79.71306 | 28033 ft | 412 kts | 252° |
| 2026-05-08 21:40 | 29.04066 | -79.74386 | 27515 ft | 409 kts | 252° |
| 2026-05-08 21:41 | 29.02197 | -79.80522 | 26487 ft | 406 kts | 252° |
| 2026-05-08 21:41 | 29.01281 | -79.83525 | 25985 ft | 404 kts | 252° |
| 2026-05-08 21:41 | 29.00360 | -79.86544 | 25471 ft | 401 kts | 252° |
| 2026-05-08 21:41 | 28.99445 | -79.89539 | 24968 ft | 398 kts | 252° |
| 2026-05-08 21:42 | 28.98533 | -79.92523 | 24440 ft | 395 kts | 252° |
| 2026-05-08 21:42 | 28.97629 | -79.95476 | 23931 ft | 393 kts | 252° |
| 2026-05-08 21:42 | 28.96755 | -79.98419 | 23388 ft | 390 kts | 253° |
| 2026-05-08 21:42 | 28.95936 | -80.01359 | 22826 ft | 387 kts | 254° |
| 2026-05-08 21:43 | 28.95130 | -80.04282 | 22309 ft | 385 kts | 254° |
| 2026-05-08 21:43 | 28.94331 | -80.07175 | 21796 ft | 383 kts | 253° |
| 2026-05-08 21:43 | 28.93526 | -80.10081 | 21273 ft | 381 kts | 253° |
| 2026-05-08 21:43 | 28.92731 | -80.12949 | 20747 ft | 379 kts | 253° |
| 2026-05-08 21:44 | 28.91936 | -80.15811 | 20228 ft | 376 kts | 253° |
| 2026-05-08 21:44 | 28.91146 | -80.18652 | 19685 ft | 374 kts | 253° |
| 2026-05-08 21:44 | 28.90360 | -80.21478 | 19148 ft | 373 kts | 253° |
| 2026-05-08 21:44 | 28.89577 | -80.24289 | 18606 ft | 371 kts | 253° |
| 2026-05-08 21:45 | 28.89050 | -80.26180 | 18230 ft | 370 kts | 252° |
| 2026-05-08 21:45 | 28.88346 | -80.28702 | 17669 ft | 368 kts | 252° |
| 2026-05-08 21:45 | 28.87578 | -80.31451 | 17108 ft | 366 kts | 252° |
| 2026-05-08 21:45 | 28.86812 | -80.34193 | 16553 ft | 363 kts | 252° |
| 2026-05-08 21:46 | 28.86046 | -80.36931 | 15992 ft | 362 kts | 252° |
| 2026-05-08 21:46 | 28.85283 | -80.39656 | 15423 ft | 361 kts | 252° |
| 2026-05-08 21:46 | 28.84517 | -80.42388 | 14844 ft | 360 kts | 252° |
| 2026-05-08 21:46 | 28.83754 | -80.45111 | 14319 ft | 363 kts | 252° |
| 2026-05-08 21:47 | 28.83095 | -80.47952 | 13953 ft | 377 kts | 259° |
| 2026-05-08 21:47 | 28.82780 | -80.50947 | 13699 ft | 381 kts | 263° |
| 2026-05-08 21:47 | 28.82544 | -80.53956 | 13527 ft | 381 kts | 263° |
| 2026-05-08 21:47 | 28.82308 | -80.56970 | 13349 ft | 380 kts | 263° |
| 2026-05-08 21:48 | 28.82069 | -80.59966 | 13180 ft | 379 kts | 263° |
| 2026-05-08 21:48 | 28.81826 | -80.62968 | 12999 ft | 379 kts | 263° |
| 2026-05-08 21:48 | 28.81582 | -80.65957 | 12827 ft | 378 kts | 263° |
| 2026-05-08 21:48 | 28.81337 | -80.68946 | 12654 ft | 378 kts | 263° |
| 2026-05-08 21:49 | 28.81091 | -80.71930 | 12482 ft | 377 kts | 263° |
| 2026-05-08 21:49 | 28.80847 | -80.74891 | 12304 ft | 376 kts | 263° |
| 2026-05-08 21:49 | 28.80599 | -80.77873 | 12144 ft | 376 kts | 263° |
| 2026-05-08 21:49 | 28.80356 | -80.80794 | 11974 ft | 375 kts | 263° |
| 2026-05-08 21:50 | 28.80110 | -80.83755 | 11802 ft | 374 kts | 263° |
| 2026-05-08 21:50 | 28.79866 | -80.86664 | 11637 ft | 374 kts | 263° |
| 2026-05-08 21:50 | 28.79616 | -80.89648 | 11470 ft | 373 kts | 263° |
| 2026-05-08 21:50 | 28.79368 | -80.92589 | 11308 ft | 372 kts | 263° |
| 2026-05-08 21:51 | 28.79121 | -80.95518 | 11132 ft | 372 kts | 263° |
| 2026-05-08 21:51 | 28.78872 | -80.98460 | 10947 ft | 371 kts | 263° |
| 2026-05-08 21:51 | 28.78554 | -81.01306 | 10789 ft | 369 kts | 257° |
| 2026-05-08 21:51 | 28.77672 | -81.04059 | 10633 ft | 355 kts | 240° |
| 2026-05-08 21:52 | 28.76270 | -81.06303 | 10494 ft | 338 kts | 231° |
| 2026-05-08 21:52 | 28.74818 | -81.08337 | 10311 ft | 324 kts | 231° |
| 2026-05-08 21:52 | 28.73450 | -81.10249 | 10176 ft | 310 kts | 231° |
| 2026-05-08 21:52 | 28.72104 | -81.12141 | 10026 ft | 297 kts | 231° |
| 2026-05-08 21:53 | 28.70740 | -81.13805 | 9820 ft | 287 kts | 219° |
| 2026-05-08 21:53 | 28.68989 | -81.14850 | 9448 ft | 285 kts | 199° |
| 2026-05-08 21:53 | 28.67087 | -81.15384 | 9221 ft | 280 kts | 194° |
| 2026-05-08 21:53 | 28.65173 | -81.15857 | 9107 ft | 280 kts | 194° |
| 2026-05-08 21:54 | 28.63274 | -81.16334 | 8945 ft | 280 kts | 194° |
| 2026-05-08 21:54 | 28.61374 | -81.16818 | 8725 ft | 279 kts | 194° |
| 2026-05-08 21:54 | 28.59477 | -81.17305 | 8499 ft | 278 kts | 195° |
| 2026-05-08 21:54 | 28.57638 | -81.17780 | 8340 ft | 268 kts | 195° |
| 2026-05-08 21:55 | 28.55847 | -81.18243 | 8141 ft | 260 kts | 195° |
| 2026-05-08 21:55 | 28.54082 | -81.18595 | 7932 ft | 256 kts | 187° |
| 2026-05-08 21:55 | 28.52306 | -81.18667 | 7653 ft | 255 kts | 183° |
| 2026-05-08 21:56 | 28.48763 | -81.18682 | 7216 ft | 254 kts | 182° |
| 2026-05-08 21:56 | 28.47017 | -81.18692 | 7000 ft | 253 kts | 182° |
| 2026-05-08 21:56 | 28.45260 | -81.18705 | 6784 ft | 252 kts | 182° |
| 2026-05-08 21:56 | 28.43513 | -81.18718 | 6555 ft | 251 kts | 182° |
| 2026-05-08 21:57 | 28.41770 | -81.18733 | 6338 ft | 251 kts | 182° |
| 2026-05-08 21:57 | 28.40026 | -81.18746 | 6107 ft | 251 kts | 182° |
| 2026-05-08 21:57 | 28.38269 | -81.18759 | 5883 ft | 251 kts | 182° |
| 2026-05-08 21:57 | 28.36524 | -81.18771 | 5679 ft | 252 kts | 182° |
| 2026-05-08 21:58 | 28.34797 | -81.18784 | 5490 ft | 244 kts | 182° |
| 2026-05-08 21:58 | 28.33132 | -81.18796 | 5313 ft | 237 kts | 181° |
| 2026-05-08 21:58 | 28.31513 | -81.18803 | 5101 ft | 232 kts | 181° |
| 2026-05-08 21:58 | 28.29896 | -81.18777 | 4988 ft | 228 kts | 180° |
| 2026-05-08 21:59 | 28.28295 | -81.18741 | 4976 ft | 230 kts | 180° |
| 2026-05-08 21:59 | 28.26697 | -81.18703 | 4984 ft | 230 kts | 180° |
| 2026-05-08 21:59 | 28.25084 | -81.18664 | 4827 ft | 234 kts | 180° |
| 2026-05-08 21:59 | 28.23438 | -81.18626 | 4480 ft | 233 kts | 180° |
| 2026-05-08 22:00 | 28.21850 | -81.18587 | 4020 ft | 233 kts | 179° |
| 2026-05-08 22:00 | 28.20207 | -81.18549 | 3691 ft | 234 kts | 179° |
| 2026-05-08 22:00 | 28.18607 | -81.18529 | 3533 ft | 227 kts | 182° |
| 2026-05-08 22:00 | 28.17117 | -81.18968 | 3352 ft | 218 kts | 212° |
| 2026-05-08 22:01 | 28.16135 | -81.20172 | 3215 ft | 206 kts | 245° |
| 2026-05-08 22:01 | 28.15830 | -81.21708 | 3100 ft | 194 kts | 265° |
| 2026-05-08 22:01 | 28.15772 | -81.23186 | 2992 ft | 182 kts | 269° |
| 2026-05-08 22:01 | 28.15746 | -81.24602 | 2990 ft | 178 kts | 269° |
| 2026-05-08 22:02 | 28.15895 | -81.25993 | 2977 ft | 179 kts | 292° |
| 2026-05-08 22:02 | 28.16629 | -81.27119 | 2992 ft | 179 kts | 318° |
| 2026-05-08 22:02 | 28.17642 | -81.27928 | 2992 ft | 179 kts | 329° |
| 2026-05-08 22:02 | 28.18757 | -81.28594 | 2990 ft | 180 kts | 333° |
| 2026-05-08 22:03 | 28.19878 | -81.29174 | 2987 ft | 180 kts | 341° |
| 2026-05-08 22:03 | 28.21120 | -81.29278 | 2983 ft | 180 kts | 7° |
| 2026-05-08 22:03 | 28.22329 | -81.28917 | 2988 ft | 180 kts | 21° |
| 2026-05-08 22:03 | 28.23487 | -81.28375 | 2983 ft | 180 kts | 13° |
| 2026-05-08 22:04 | 28.24688 | -81.28191 | 2984 ft | 168 kts | 2° |
| 2026-05-08 22:04 | 28.25832 | -81.28148 | 2983 ft | 163 kts | 1° |
| 2026-05-08 22:04 | 28.26973 | -81.28130 | 2987 ft | 163 kts | 0° |
| 2026-05-08 22:04 | 28.28112 | -81.28116 | 2919 ft | 165 kts | 1° |
| 2026-05-08 22:05 | 28.29301 | -81.28105 | 2501 ft | 177 kts | 359° |
| 2026-05-08 22:05 | 28.30532 | -81.28123 | 2244 ft | 174 kts | 360° |
| 2026-05-08 22:05 | 28.31710 | -81.28133 | 2026 ft | 163 kts | 0° |
| 2026-05-08 22:05 | 28.32784 | -81.28141 | 1819 ft | 150 kts | 0° |
| 2026-05-08 22:06 | 28.33779 | -81.28150 | 1636 ft | 137 kts | 1° |
| 2026-05-08 22:06 | 28.34720 | -81.28159 | 1472 ft | 134 kts | 0° |
| 2026-05-08 22:06 | 28.35667 | -81.28169 | 1281 ft | 138 kts | 1° |
| 2026-05-08 22:06 | 28.36616 | -81.28179 | 1113 ft | 137 kts | 1° |
| 2026-05-08 22:07 | 28.37572 | -81.28189 | 934 ft | 136 kts | 1° |
| 2026-05-08 22:07 | 28.38505 | -81.28192 | 770 ft | 137 kts | 0° |
| 2026-05-08 22:07 | 28.39290 | -81.28230 | 630 ft | 138 kts | 359° |
| 2026-05-08 22:07 | 28.40080 | -81.28257 | 531 ft | 141 kts | 1° |
| 2026-05-08 22:08 | 28.41102 | -81.28242 | 326 ft | 148 kts | 359° |
| 2026-05-08 22:08 | 28.42120 | -81.28234 | 179 ft | 149 kts | 358° |
| 2026-05-08 22:08 | 28.43180 | -81.28194 | 455 ft | 158 kts | 1° |
| 2026-05-08 22:08 | 28.44297 | -81.28205 | 780 ft | 166 kts | 1° |
| 2026-05-08 22:09 | 28.45492 | -81.28219 | 1140 ft | 176 kts | 1° |
| 2026-05-08 22:09 | 28.46650 | -81.28189 | 1680 ft | 180 kts | 6° |
| 2026-05-08 22:09 | 28.47852 | -81.27712 | 2116 ft | 188 kts | 36° |
| 2026-05-08 22:09 | 28.48557 | -81.26565 | 2539 ft | 197 kts | 70° |
| 2026-05-08 22:10 | 28.48575 | -81.24901 | 2779 ft | 221 kts | 104° |
| 2026-05-08 22:10 | 28.47730 | -81.23342 | 2924 ft | 249 kts | 135° |
| 2026-05-08 22:10 | 28.46174 | -81.22313 | 2958 ft | 269 kts | 163° |
| 2026-05-08 22:10 | 28.44299 | -81.22178 | 2967 ft | 273 kts | 190° |
| 2026-05-08 22:11 | 28.42566 | -81.23007 | 2979 ft | 272 kts | 217° |
| 2026-05-08 22:11 | 28.41215 | -81.24508 | 2981 ft | 271 kts | 229° |
| 2026-05-08 22:11 | 28.39822 | -81.25939 | 2971 ft | 271 kts | 212° |
| 2026-05-08 22:11 | 28.38066 | -81.26613 | 2976 ft | 263 kts | 184° |
| 2026-05-08 22:12 | 28.36344 | -81.26307 | 2987 ft | 244 kts | 155° |
| 2026-05-08 22:12 | 28.35047 | -81.25191 | 2997 ft | 235 kts | 131° |
| 2026-05-08 22:12 | 28.34028 | -81.23727 | 2994 ft | 238 kts | 126° |
| 2026-05-08 22:12 | 28.33053 | -81.22191 | 2989 ft | 239 kts | 125° |
| 2026-05-08 22:13 | 28.32102 | -81.20681 | 2987 ft | 239 kts | 125° |
| 2026-05-08 22:13 | 28.31108 | -81.19121 | 2985 ft | 239 kts | 128° |
| 2026-05-08 22:13 | 28.29864 | -81.17906 | 2982 ft | 232 kts | 155° |
| 2026-05-08 22:13 | 28.28330 | -81.17483 | 2998 ft | 227 kts | 176° |
| 2026-05-08 22:14 | 28.26771 | -81.17437 | 2995 ft | 227 kts | 182° |
| 2026-05-08 22:14 | 28.25250 | -81.17859 | 2990 ft | 223 kts | 211° |
| 2026-05-08 22:14 | 28.24203 | -81.19061 | 3000 ft | 210 kts | 244° |
| 2026-05-08 22:14 | 28.23861 | -81.20578 | 3023 ft | 191 kts | 265° |
| 2026-05-08 22:15 | 28.23791 | -81.22072 | 3014 ft | 189 kts | 269° |
| 2026-05-08 22:15 | 28.23755 | -81.23567 | 2999 ft | 190 kts | 269° |
| 2026-05-08 22:15 | 28.23725 | -81.25071 | 2994 ft | 191 kts | 269° |
| 2026-05-08 22:15 | 28.23704 | -81.26571 | 2984 ft | 190 kts | 272° |
| 2026-05-08 22:16 | 28.24171 | -81.27922 | 2976 ft | 183 kts | 315° |
| 2026-05-08 22:16 | 28.25299 | -81.28407 | 3002 ft | 176 kts | 359° |
| 2026-05-08 22:16 | 28.26511 | -81.28298 | 2993 ft | 178 kts | 5° |
| 2026-05-08 22:16 | 28.27746 | -81.28172 | 2781 ft | 178 kts | 2° |
| 2026-05-08 22:17 | 28.28985 | -81.28111 | 2542 ft | 177 kts | 0° |
| 2026-05-08 22:17 | 28.30214 | -81.28110 | 2311 ft | 176 kts | 358° |
| 2026-05-08 22:17 | 28.31434 | -81.28130 | 2075 ft | 174 kts | 359° |
| 2026-05-08 22:17 | 28.32233 | -81.28137 | 1931 ft | 173 kts | 359° |
| 2026-05-08 22:18 | 28.33405 | -81.28146 | 1715 ft | 162 kts | 359° |
| 2026-05-08 22:18 | 28.34828 | -81.28160 | 1429 ft | 146 kts | 359° |
| 2026-05-08 22:18 | 28.35503 | -81.28166 | 1311 ft | 141 kts | 359° |
| 2026-05-08 22:18 | 28.36453 | -81.28176 | 1146 ft | 134 kts | 359° |
| 2026-05-08 22:19 | 28.37398 | -81.28186 | 966 ft | 136 kts | 0° |
| 2026-05-08 22:19 | 28.38332 | -81.28199 | 805 ft | 137 kts | 0° |
| 2026-05-08 22:19 | 28.39291 | -81.28227 | 624 ft | 139 kts | 0° |
| 2026-05-08 22:19 | 28.40275 | -81.28236 | 450 ft | 143 kts | 359° |
| 2026-05-08 22:20 | 28.41280 | -81.28238 | 261 ft | 145 kts | 2° |
| 2026-05-08 22:20 | 28.42299 | -81.28232 | 118 ft | 147 kts | 1° |
| 2026-05-08 22:20 | 28.43202 | -81.28248 | 103 ft | 99 kts | 360° |
| 2026-05-08 22:20 | 28.43635 | -81.28251 | 105 ft | 24 kts | 0° |
| 2026-05-08 22:21 | 28.43712 | -81.28251 | 107 ft | 10 kts | 360° |
| 2026-05-08 22:21 | 28.43781 | -81.28266 | 108 ft | 10 kts | 339° |
| 2026-05-08 22:21 | 28.43843 | -81.28309 | 109 ft | 11 kts | 314° |
| 2026-05-08 22:21 | 28.43874 | -81.28393 | 109 ft | 12 kts | 276° |
| 2026-05-08 22:22 | 28.43875 | -81.28499 | 109 ft | 15 kts | 268° |
| 2026-05-08 22:22 | 28.43873 | -81.28609 | 112 ft | 14 kts | 268° |
| 2026-05-08 22:22 | 28.43873 | -81.28725 | 112 ft | 16 kts | 269° |
| 2026-05-08 22:22 | 28.43872 | -81.28860 | 112 ft | 18 kts | 269° |
| 2026-05-08 22:23 | 28.43870 | -81.29007 | 112 ft | 18 kts | 268° |
| 2026-05-08 22:23 | 28.43870 | -81.29131 | 106 ft | 16 kts | 269° |
| 2026-05-08 22:23 | 28.43865 | -81.29229 | 103 ft | 11 kts | 253° |
| 2026-05-08 22:23 | 28.43803 | -81.29264 | 104 ft | 11 kts | 185° |
| 2026-05-08 22:24 | 28.43722 | -81.29263 | 107 ft | 12 kts | 178° |
| 2026-05-08 22:24 | 28.43633 | -81.29262 | 106 ft | 13 kts | 180° |
| 2026-05-08 22:24 | 28.43572 | -81.29280 | 105 ft | 7 kts | 229° |
| 2026-05-08 22:24 | 28.43555 | -81.29334 | 107 ft | 8 kts | 262° |
| 2026-05-08 22:25 | 28.43553 | -81.29401 | 107 ft | 9 kts | 269° |
| 2026-05-08 22:25 | 28.43552 | -81.29486 | 107 ft | 12 kts | 269° |
| 2026-05-08 22:25 | 28.43551 | -81.29592 | 107 ft | 12 kts | 269° |
| 2026-05-08 22:25 | 28.43548 | -81.29669 | 106 ft | 0 kts | 257° |
| 2026-05-08 22:26 | 28.43545 | -81.29680 | 105 ft | 3 kts | 251° |
| 2026-05-08 22:26 | 28.43529 | -81.29703 | 105 ft | 4 kts | 222° |
| 2026-05-08 22:26 | 28.43498 | -81.29712 | 105 ft | 6 kts | 185° |
| 2026-05-08 22:26 | 28.43454 | -81.29713 | 105 ft | 7 kts | 179° |
| 2026-05-08 22:27 | 28.43403 | -81.29711 | 106 ft | 8 kts | 178° |
| 2026-05-08 22:27 | 28.43343 | -81.29710 | 107 ft | 9 kts | 179° |
| 2026-05-08 22:27 | 28.43270 | -81.29709 | 107 ft | 12 kts | 179° |
| 2026-05-08 22:27 | 28.43174 | -81.29708 | 105 ft | 16 kts | 179° |
| 2026-05-08 22:28 | 28.43056 | -81.29707 | 106 ft | 17 kts | 179° |
| 2026-05-08 22:28 | 28.42937 | -81.29705 | 106 ft | 17 kts | 179° |
| 2026-05-08 22:28 | 28.42809 | -81.29703 | 106 ft | 20 kts | 181° |
| 2026-05-08 22:28 | 28.42670 | -81.29704 | 103 ft | 19 kts | 179° |
| 2026-05-08 22:29 | 28.42566 | -81.29703 | 105 ft | 12 kts | 179° |
| 2026-05-08 22:29 | 28.42487 | -81.29702 | 107 ft | 12 kts | 179° |
| 2026-05-08 22:29 | 28.42399 | -81.29701 | 104 ft | 14 kts | 179° |
| 2026-05-08 22:29 | 28.42295 | -81.29699 | 104 ft | 16 kts | 179° |
| 2026-05-08 22:30 | 28.42204 | -81.29703 | 102 ft | 10 kts | 201° |
| 2026-05-08 22:30 | 28.42186 | -81.29761 | 105 ft | 7 kts | 292° |
| 2026-05-08 22:30 | 28.42229 | -81.29790 | 105 ft | 8 kts | 334° |
| 2026-05-08 22:30 | 28.42274 | -81.29830 | 106 ft | 8 kts | 302° |
| 2026-05-08 22:31 | 28.42280 | -81.29896 | 106 ft | 9 kts | 268° |
| 2026-05-08 22:31 | 28.42279 | -81.29975 | 107 ft | 11 kts | 269° |
| 2026-05-08 22:31 | 28.42279 | -81.30074 | 106 ft | 14 kts | 270° |
| 2026-05-08 22:31 | 28.42278 | -81.30197 | 106 ft | 17 kts | 269° |
| 2026-05-08 22:32 | 28.42276 | -81.30336 | 106 ft | 19 kts | 268° |
| 2026-05-08 22:32 | 28.42267 | -81.30492 | 110 ft | 19 kts | 265° |
| 2026-05-08 22:32 | 28.42256 | -81.30648 | 110 ft | 21 kts | 265° |
| 2026-05-08 22:32 | 28.42244 | -81.30807 | 109 ft | 19 kts | 265° |
| 2026-05-08 22:33 | 28.42235 | -81.30936 | 108 ft | 13 kts | 266° |
| 2026-05-08 22:33 | 28.42238 | -81.31045 | 101 ft | 19 kts | 276° |
| 2026-05-08 22:33 | 28.42257 | -81.31182 | 102 ft | 16 kts | 279° |
| 2026-05-08 22:33 | 28.42268 | -81.31301 | 101 ft | 15 kts | 272° |
| 2026-05-08 22:34 | 28.42267 | -81.31420 | 102 ft | 15 kts | 270° |
| 2026-05-08 22:34 | 28.42267 | -81.31546 | 103 ft | 14 kts | 270° |
| 2026-05-08 22:34 | 28.42266 | -81.31659 | 104 ft | 15 kts | 270° |
| 2026-05-08 22:34 | 28.42250 | -81.31740 | 106 ft | 7 kts | 220° |
| 2026-05-08 22:35 | 28.42203 | -81.31764 | 107 ft | 8 kts | 199° |
| 2026-05-08 22:35 | 28.42142 | -81.31786 | 107 ft | 11 kts | 197° |
| 2026-05-08 22:35 | 28.42062 | -81.31796 | 106 ft | 13 kts | 178° |
| 2026-05-08 22:35 | 28.41968 | -81.31794 | 105 ft | 14 kts | 179° |
| 2026-05-08 22:36 | 28.41866 | -81.31793 | 106 ft | 14 kts | 180° |
| 2026-05-08 22:36 | 28.41770 | -81.31792 | 106 ft | 15 kts | 180° |
| 2026-05-08 22:36 | 28.41671 | -81.31790 | 104 ft | 14 kts | 178° |
| 2026-05-08 22:36 | 28.41571 | -81.31789 | 104 ft | 14 kts | 179° |
| 2026-05-08 22:37 | 28.41487 | -81.31790 | 104 ft | 12 kts | 184° |
| 2026-05-08 22:37 | 28.41407 | -81.31805 | 105 ft | 11 kts | 183° |
| 2026-05-08 22:37 | 28.41344 | -81.31788 | 105 ft | 9 kts | 134° |
| 2026-05-08 22:37 | 28.41328 | -81.31721 | 103 ft | 8 kts | 92° |
| 2026-05-08 22:38 | 28.41324 | -81.31667 | 103 ft | 8 kts | 107° |
| 2026-05-08 22:38 | 28.41283 | -81.31635 | 104 ft | 6 kts | 160° |
| 2026-05-08 22:38 | 28.41252 | -81.31629 | 105 ft | 3 kts | 174° |
| 2026-05-08 22:38 | 28.41235 | -81.31628 | 105 ft | 1 kts | 175° |
| 2026-05-08 22:39 | 28.41233 | -81.31628 | 105 ft | 0 kts | 175° |
| 2026-05-08 22:39 | 28.41231 | -81.31627 | 105 ft | 1 kts | 175° |
| 2026-05-08 22:39 | 28.41227 | -81.31627 | 105 ft | 1 kts | 175° |
| 2026-05-08 22:39 | 28.41226 | -81.31627 | 105 ft | 0 kts | 175° |
| 2026-05-08 22:40 | 28.41225 | -81.31627 | 105 ft | 0 kts | 175° |